<?xml version="1.0" encoding="UTF-8"?>
<gpx version="1.1" creator="2bulu-scraper" xmlns="http://www.topografix.com/GPX/1/1">
  <metadata><name>泸州方山</name><desc>source: 2bulu.com trackId=80197397; exported 2026-09-01T14:51:07.559Z</desc>
    <bounds minlat="28.8216788" minlon="105.2899869" maxlat="28.8368464" maxlon="105.3227615"/>
    <link href="https://www.2bulu.com/track/t-mQBPMrdzXkrp%252FR2KBg5Tzw%253D%253D.htm"><text>2bulu 源页面</text></link>
  </metadata>
  <wpt lat="28.8256817" lon="105.2986272"><ele>401</ele><name>
        </name></wpt>
  <wpt lat="28.8235538" lon="105.3024474"><ele>536</ele><name>
        </name></wpt>
  <wpt lat="28.8258703" lon="105.3060208"><ele>585</ele><name>
        </name></wpt>
  <wpt lat="28.8262301" lon="105.3074336"><ele>546</ele><name>
        </name></wpt>
  <wpt lat="28.8259802" lon="105.3109579"><ele>564</ele><name>
        </name></wpt>
  <wpt lat="28.8259129" lon="105.3106079"><ele>546</ele><name>
        </name></wpt>
  <wpt lat="28.8248689" lon="105.3101736"><ele>471</ele><name>
        </name></wpt>
  <wpt lat="28.8249066" lon="105.3100266"><ele>468</ele><name>
        </name></wpt>
  <wpt lat="28.8249717" lon="105.3099036"><ele>478</ele><name>
        </name></wpt>
  <wpt lat="28.8249717" lon="105.3099036"><ele>478</ele><name>
        </name></wpt>
  <wpt lat="28.8260751" lon="105.3099608"><ele>549</ele><name>
        </name></wpt>
  <wpt lat="28.8283966" lon="105.311555"><ele>583</ele><name>
        </name></wpt>
  <wpt lat="28.8289514" lon="105.3120222"><ele>588</ele><name>
        </name></wpt>
  <wpt lat="28.8289428" lon="105.3122592"><ele>587</ele><name>
        </name></wpt>
  <wpt lat="28.8288252" lon="105.3160769"><ele>562</ele><name>
        </name></wpt>
  <wpt lat="28.8291511" lon="105.3179696"><ele>558</ele><name>
        </name></wpt>
  <wpt lat="28.829435" lon="105.3211778"><ele>508</ele><name>
        </name></wpt>
  <wpt lat="28.829435" lon="105.3211778"><ele>508</ele><name>
        </name></wpt>
  <wpt lat="28.8308293" lon="105.3214651"><ele>424</ele><name>
        </name></wpt>
  <wpt lat="28.8343281" lon="105.3179031"><ele>422</ele><name>
        </name></wpt>
  <wpt lat="28.8349855" lon="105.3175019"><ele>421</ele><name>
        </name></wpt>
  <wpt lat="28.8362199" lon="105.3168623"><ele>419</ele><name>
        </name></wpt>
  <wpt lat="28.8358818" lon="105.3147583"><ele>467</ele><name>
        </name></wpt>
  <wpt lat="28.8349138" lon="105.3149905"><ele>523</ele><name>
        </name></wpt>
  <wpt lat="28.8347294" lon="105.315086"><ele>541</ele><name>
        </name></wpt>
  <wpt lat="28.8345205" lon="105.3148392"><ele>559</ele><name>
        </name></wpt>
  <wpt lat="28.8336051" lon="105.313698"><ele>518</ele><name>
        </name></wpt>
  <wpt lat="28.8333326" lon="105.3120638"><ele>552</ele><name>
        </name></wpt>
  <wpt lat="28.8335525" lon="105.3117109"><ele>530</ele><name>
        </name></wpt>
  <wpt lat="28.8335525" lon="105.3117109"><ele>530</ele><name>
        </name></wpt>
  <wpt lat="28.8322036" lon="105.3102235"><ele>583</ele><name>补给点
        </name></wpt>
  <wpt lat="28.8317923" lon="105.3077868"><ele>589</ele><name>
        </name></wpt>
  <wpt lat="28.8316977" lon="105.3075922"><ele>584</ele><name>
        </name></wpt>
  <wpt lat="28.8314992" lon="105.3070523"><ele>579</ele><name>
        </name></wpt>
  <wpt lat="28.8327187" lon="105.301"><ele>506</ele><name>
        </name></wpt>
  <wpt lat="28.8324978" lon="105.3009854"><ele>511</ele><name>
        </name></wpt>
  <wpt lat="28.8325135" lon="105.2945587"><ele>366</ele><name>
        </name></wpt>
  <trk><name>泸州方山</name>
      <trkseg>
        <trkpt lat="28.8324464" lon="105.2900545"><ele>277.58</ele><time>2026-02-28T17:22:08.000Z</time></trkpt>
        <trkpt lat="28.8325397" lon="105.2900019"><ele>277.58</ele><time>2026-02-28T17:24:10.000Z</time></trkpt>
        <trkpt lat="28.8326417" lon="105.2899869"><ele>278.29</ele><time>2026-02-28T17:24:18.000Z</time></trkpt>
        <trkpt lat="28.8327324" lon="105.2900022"><ele>278.66</ele><time>2026-02-28T17:24:25.000Z</time></trkpt>
        <trkpt lat="28.8327926" lon="105.2900725"><ele>278.74</ele><time>2026-02-28T17:24:33.000Z</time></trkpt>
        <trkpt lat="28.8328103" lon="105.2901825"><ele>279.96</ele><time>2026-02-28T17:24:41.000Z</time></trkpt>
        <trkpt lat="28.832841" lon="105.2902973"><ele>281.23</ele><time>2026-02-28T17:24:49.000Z</time></trkpt>
        <trkpt lat="28.8328528" lon="105.2904131"><ele>283.03</ele><time>2026-02-28T17:24:59.000Z</time></trkpt>
        <trkpt lat="28.83287" lon="105.290531"><ele>284.36</ele><time>2026-02-28T17:25:09.000Z</time></trkpt>
        <trkpt lat="28.832882" lon="105.2906484"><ele>285.09</ele><time>2026-02-28T17:25:19.000Z</time></trkpt>
        <trkpt lat="28.83287" lon="105.29069"><ele>286.49</ele><time>2026-02-28T17:25:23.000Z</time></trkpt>
        <trkpt lat="28.8328346" lon="105.2907705"><ele>287.28</ele><time>2026-02-28T17:25:57.000Z</time></trkpt>
        <trkpt lat="28.832745" lon="105.290805"><ele>289.44</ele><time>2026-02-28T17:26:07.000Z</time></trkpt>
        <trkpt lat="28.8326467" lon="105.2908434"><ele>289.52</ele><time>2026-02-28T17:26:17.000Z</time></trkpt>
        <trkpt lat="28.8325463" lon="105.2908683"><ele>289.44</ele><time>2026-02-28T17:26:25.000Z</time></trkpt>
        <trkpt lat="28.8324547" lon="105.2909031"><ele>289.46</ele><time>2026-02-28T17:26:33.000Z</time></trkpt>
        <trkpt lat="28.8323694" lon="105.2909496"><ele>289.57</ele><time>2026-02-28T17:26:41.000Z</time></trkpt>
        <trkpt lat="28.8322986" lon="105.2910313"><ele>290.24</ele><time>2026-02-28T17:26:51.000Z</time></trkpt>
        <trkpt lat="28.8322763" lon="105.2911522"><ele>290.44</ele><time>2026-02-28T17:27:01.000Z</time></trkpt>
        <trkpt lat="28.8322781" lon="105.2912799"><ele>291.84</ele><time>2026-02-28T17:27:11.000Z</time></trkpt>
        <trkpt lat="28.8322932" lon="105.2913979"><ele>293.61</ele><time>2026-02-28T17:27:19.000Z</time></trkpt>
        <trkpt lat="28.8323246" lon="105.2915062"><ele>295.61</ele><time>2026-02-28T17:27:27.000Z</time></trkpt>
        <trkpt lat="28.8323907" lon="105.2915895"><ele>297.63</ele><time>2026-02-28T17:27:35.000Z</time></trkpt>
        <trkpt lat="28.8324592" lon="105.2916675"><ele>298.6</ele><time>2026-02-28T17:27:43.000Z</time></trkpt>
        <trkpt lat="28.8325247" lon="105.2917436"><ele>300.81</ele><time>2026-02-28T17:27:51.000Z</time></trkpt>
        <trkpt lat="28.8325999" lon="105.2918267"><ele>302.03</ele><time>2026-02-28T17:28:01.000Z</time></trkpt>
        <trkpt lat="28.8326772" lon="105.2919095"><ele>302.81</ele><time>2026-02-28T17:28:11.000Z</time></trkpt>
        <trkpt lat="28.8327018" lon="105.2920218"><ele>302.73</ele><time>2026-02-28T17:28:23.000Z</time></trkpt>
        <trkpt lat="28.832679" lon="105.2921367"><ele>303.78</ele><time>2026-02-28T17:28:33.000Z</time></trkpt>
        <trkpt lat="28.8326241" lon="105.2922331"><ele>303.25</ele><time>2026-02-28T17:28:45.000Z</time></trkpt>
        <trkpt lat="28.8325341" lon="105.292231"><ele>305.74</ele><time>2026-02-28T17:28:55.000Z</time></trkpt>
        <trkpt lat="28.8324221" lon="105.2922134"><ele>309.44</ele><time>2026-02-28T17:29:05.000Z</time></trkpt>
        <trkpt lat="28.8323232" lon="105.292244"><ele>311.98</ele><time>2026-02-28T17:29:13.000Z</time></trkpt>
        <trkpt lat="28.8322769" lon="105.292331"><ele>313.83</ele><time>2026-02-28T17:29:21.000Z</time></trkpt>
        <trkpt lat="28.8323051" lon="105.292426"><ele>314.9</ele><time>2026-02-28T17:29:29.000Z</time></trkpt>
        <trkpt lat="28.8323579" lon="105.2925372"><ele>315.59</ele><time>2026-02-28T17:29:39.000Z</time></trkpt>
        <trkpt lat="28.8324321" lon="105.2926369"><ele>316.14</ele><time>2026-02-28T17:29:49.000Z</time></trkpt>
        <trkpt lat="28.8325134" lon="105.2927172"><ele>317.08</ele><time>2026-02-28T17:29:57.000Z</time></trkpt>
        <trkpt lat="28.8326016" lon="105.2927928"><ele>319.07</ele><time>2026-02-28T17:30:07.000Z</time></trkpt>
        <trkpt lat="28.8326768" lon="105.2928648"><ele>320.43</ele><time>2026-02-28T17:30:15.000Z</time></trkpt>
        <trkpt lat="28.8327376" lon="105.2929509"><ele>321</ele><time>2026-02-28T17:30:25.000Z</time></trkpt>
        <trkpt lat="28.8327542" lon="105.2930525"><ele>322.34</ele><time>2026-02-28T17:30:35.000Z</time></trkpt>
        <trkpt lat="28.8326953" lon="105.2931284"><ele>321.35</ele><time>2026-02-28T17:30:49.000Z</time></trkpt>
        <trkpt lat="28.8326053" lon="105.2931896"><ele>325.25</ele><time>2026-02-28T17:30:59.000Z</time></trkpt>
        <trkpt lat="28.8325215" lon="105.2932627"><ele>328.29</ele><time>2026-02-28T17:31:09.000Z</time></trkpt>
        <trkpt lat="28.8324759" lon="105.2933307"><ele>330.82</ele><time>2026-02-28T17:31:17.000Z</time></trkpt>
        <trkpt lat="28.8324458" lon="105.2934252"><ele>333.75</ele><time>2026-02-28T17:31:37.000Z</time></trkpt>
        <trkpt lat="28.8324196" lon="105.2935256"><ele>334.43</ele><time>2026-02-28T17:31:47.000Z</time></trkpt>
        <trkpt lat="28.8324329" lon="105.2936369"><ele>333.92</ele><time>2026-02-28T17:31:55.000Z</time></trkpt>
        <trkpt lat="28.8324327" lon="105.293685"><ele>335.43</ele><time>2026-02-28T17:32:03.000Z</time></trkpt>
        <trkpt lat="28.8323531" lon="105.2936777"><ele>337.36</ele><time>2026-02-28T17:32:15.000Z</time></trkpt>
        <trkpt lat="28.8322523" lon="105.2936733"><ele>338.45</ele><time>2026-02-28T17:32:23.000Z</time></trkpt>
        <trkpt lat="28.8321295" lon="105.2936871"><ele>339.06</ele><time>2026-02-28T17:32:31.000Z</time></trkpt>
        <trkpt lat="28.8320226" lon="105.2936743"><ele>339.09</ele><time>2026-02-28T17:32:37.000Z</time></trkpt>
        <trkpt lat="28.8319147" lon="105.2936558"><ele>340.54</ele><time>2026-02-28T17:32:47.000Z</time></trkpt>
        <trkpt lat="28.8318183" lon="105.2936296"><ele>340.27</ele><time>2026-02-28T17:32:55.000Z</time></trkpt>
        <trkpt lat="28.8317253" lon="105.2936289"><ele>339.66</ele><time>2026-02-28T17:33:03.000Z</time></trkpt>
        <trkpt lat="28.8316193" lon="105.2936215"><ele>338.34</ele><time>2026-02-28T17:33:11.000Z</time></trkpt>
        <trkpt lat="28.8315218" lon="105.2936304"><ele>337.52</ele><time>2026-02-28T17:33:19.000Z</time></trkpt>
        <trkpt lat="28.8314255" lon="105.2936312"><ele>336.31</ele><time>2026-02-28T17:33:29.000Z</time></trkpt>
        <trkpt lat="28.8313198" lon="105.2936443"><ele>333.34</ele><time>2026-02-28T17:33:39.000Z</time></trkpt>
        <trkpt lat="28.8312131" lon="105.2936701"><ele>330.42</ele><time>2026-02-28T17:33:49.000Z</time></trkpt>
        <trkpt lat="28.8311072" lon="105.2937037"><ele>327.82</ele><time>2026-02-28T17:33:59.000Z</time></trkpt>
        <trkpt lat="28.8310127" lon="105.2937201"><ele>324.97</ele><time>2026-02-28T17:34:07.000Z</time></trkpt>
        <trkpt lat="28.8309231" lon="105.2937063"><ele>322.03</ele><time>2026-02-28T17:34:15.000Z</time></trkpt>
        <trkpt lat="28.8308359" lon="105.293665"><ele>320.55</ele><time>2026-02-28T17:34:23.000Z</time></trkpt>
        <trkpt lat="28.8307526" lon="105.293598"><ele>320.15</ele><time>2026-02-28T17:34:31.000Z</time></trkpt>
        <trkpt lat="28.8306787" lon="105.2935117"><ele>319.48</ele><time>2026-02-28T17:34:39.000Z</time></trkpt>
        <trkpt lat="28.8306032" lon="105.2934271"><ele>318.8</ele><time>2026-02-28T17:34:47.000Z</time></trkpt>
        <trkpt lat="28.8305154" lon="105.2933641"><ele>318.3</ele><time>2026-02-28T17:34:55.000Z</time></trkpt>
        <trkpt lat="28.8304199" lon="105.2933604"><ele>318.03</ele><time>2026-02-28T17:35:03.000Z</time></trkpt>
        <trkpt lat="28.8303241" lon="105.2933988"><ele>318.09</ele><time>2026-02-28T17:35:11.000Z</time></trkpt>
        <trkpt lat="28.8302398" lon="105.2934713"><ele>317.85</ele><time>2026-02-28T17:35:19.000Z</time></trkpt>
        <trkpt lat="28.8301624" lon="105.2935537"><ele>318.14</ele><time>2026-02-28T17:35:27.000Z</time></trkpt>
        <trkpt lat="28.8300912" lon="105.2936475"><ele>318.26</ele><time>2026-02-28T17:35:35.000Z</time></trkpt>
        <trkpt lat="28.8300184" lon="105.2937383"><ele>318.57</ele><time>2026-02-28T17:35:43.000Z</time></trkpt>
        <trkpt lat="28.8299275" lon="105.2938046"><ele>318.72</ele><time>2026-02-28T17:35:51.000Z</time></trkpt>
        <trkpt lat="28.8298256" lon="105.293852"><ele>319.31</ele><time>2026-02-28T17:35:59.000Z</time></trkpt>
        <trkpt lat="28.8297462" lon="105.2939121"><ele>319.73</ele><time>2026-02-28T17:36:07.000Z</time></trkpt>
        <trkpt lat="28.829656" lon="105.2939777"><ele>320.24</ele><time>2026-02-28T17:36:17.000Z</time></trkpt>
        <trkpt lat="28.8295772" lon="105.2940497"><ele>319.97</ele><time>2026-02-28T17:36:25.000Z</time></trkpt>
        <trkpt lat="28.8295158" lon="105.294135"><ele>320.04</ele><time>2026-02-28T17:36:33.000Z</time></trkpt>
        <trkpt lat="28.8294622" lon="105.2942308"><ele>319.38</ele><time>2026-02-28T17:36:41.000Z</time></trkpt>
        <trkpt lat="28.829421" lon="105.2943314"><ele>319.1</ele><time>2026-02-28T17:36:49.000Z</time></trkpt>
        <trkpt lat="28.8294019" lon="105.2944427"><ele>318.97</ele><time>2026-02-28T17:36:57.000Z</time></trkpt>
        <trkpt lat="28.8294028" lon="105.2945572"><ele>319.67</ele><time>2026-02-28T17:37:05.000Z</time></trkpt>
        <trkpt lat="28.8294341" lon="105.2946664"><ele>319.83</ele><time>2026-02-28T17:37:13.000Z</time></trkpt>
        <trkpt lat="28.8294629" lon="105.2947799"><ele>320.21</ele><time>2026-02-28T17:37:21.000Z</time></trkpt>
        <trkpt lat="28.8294791" lon="105.2948908"><ele>320.72</ele><time>2026-02-28T17:37:29.000Z</time></trkpt>
        <trkpt lat="28.8294491" lon="105.2949995"><ele>319.85</ele><time>2026-02-28T17:37:37.000Z</time></trkpt>
        <trkpt lat="28.829394" lon="105.2950891"><ele>319.68</ele><time>2026-02-28T17:37:45.000Z</time></trkpt>
        <trkpt lat="28.8293367" lon="105.2951789"><ele>319.82</ele><time>2026-02-28T17:37:53.000Z</time></trkpt>
        <trkpt lat="28.8292766" lon="105.2952753"><ele>320.13</ele><time>2026-02-28T17:38:01.000Z</time></trkpt>
        <trkpt lat="28.8292102" lon="105.2953588"><ele>320.68</ele><time>2026-02-28T17:38:09.000Z</time></trkpt>
        <trkpt lat="28.8291405" lon="105.2954397"><ele>321.02</ele><time>2026-02-28T17:38:17.000Z</time></trkpt>
        <trkpt lat="28.8290816" lon="105.2955225"><ele>320.12</ele><time>2026-02-28T17:38:25.000Z</time></trkpt>
        <trkpt lat="28.8290044" lon="105.2955853"><ele>319.59</ele><time>2026-02-28T17:38:33.000Z</time></trkpt>
        <trkpt lat="28.8289298" lon="105.295656"><ele>320.6</ele><time>2026-02-28T17:38:41.000Z</time></trkpt>
        <trkpt lat="28.828849" lon="105.2957207"><ele>322.04</ele><time>2026-02-28T17:38:49.000Z</time></trkpt>
        <trkpt lat="28.8287597" lon="105.295777"><ele>322.13</ele><time>2026-02-28T17:38:57.000Z</time></trkpt>
        <trkpt lat="28.8286707" lon="105.2958324"><ele>322.75</ele><time>2026-02-28T17:39:05.000Z</time></trkpt>
        <trkpt lat="28.8285789" lon="105.295873"><ele>322.65</ele><time>2026-02-28T17:39:13.000Z</time></trkpt>
        <trkpt lat="28.8285016" lon="105.2959411"><ele>323.49</ele><time>2026-02-28T17:39:21.000Z</time></trkpt>
        <trkpt lat="28.8284594" lon="105.2960377"><ele>324.27</ele><time>2026-02-28T17:39:29.000Z</time></trkpt>
        <trkpt lat="28.8284346" lon="105.2961435"><ele>324.92</ele><time>2026-02-28T17:39:37.000Z</time></trkpt>
        <trkpt lat="28.8284615" lon="105.2962496"><ele>324.26</ele><time>2026-02-28T17:39:45.000Z</time></trkpt>
        <trkpt lat="28.828473" lon="105.2963738"><ele>323.37</ele><time>2026-02-28T17:39:55.000Z</time></trkpt>
        <trkpt lat="28.8284889" lon="105.2965015"><ele>323.81</ele><time>2026-02-28T17:40:05.000Z</time></trkpt>
        <trkpt lat="28.8284497" lon="105.2966143"><ele>324.04</ele><time>2026-02-28T17:40:15.000Z</time></trkpt>
        <trkpt lat="28.8283945" lon="105.2967104"><ele>324.56</ele><time>2026-02-28T17:40:23.000Z</time></trkpt>
        <trkpt lat="28.828306" lon="105.2967806"><ele>324.12</ele><time>2026-02-28T17:40:31.000Z</time></trkpt>
        <trkpt lat="28.8282437" lon="105.2968688"><ele>324.3</ele><time>2026-02-28T17:40:39.000Z</time></trkpt>
        <trkpt lat="28.8281771" lon="105.2969664"><ele>325.01</ele><time>2026-02-28T17:40:49.000Z</time></trkpt>
        <trkpt lat="28.8281017" lon="105.2970345"><ele>323.28</ele><time>2026-02-28T17:40:57.000Z</time></trkpt>
        <trkpt lat="28.8280137" lon="105.2970433"><ele>321.93</ele><time>2026-02-28T17:41:05.000Z</time></trkpt>
        <trkpt lat="28.8279322" lon="105.2969766"><ele>323.02</ele><time>2026-02-28T17:41:15.000Z</time></trkpt>
        <trkpt lat="28.8278532" lon="105.2969016"><ele>324.69</ele><time>2026-02-28T17:41:23.000Z</time></trkpt>
        <trkpt lat="28.8277823" lon="105.2968218"><ele>326.42</ele><time>2026-02-28T17:41:31.000Z</time></trkpt>
        <trkpt lat="28.8276937" lon="105.2968224"><ele>326.74</ele><time>2026-02-28T17:41:41.000Z</time></trkpt>
        <trkpt lat="28.8276159" lon="105.2968807"><ele>327</ele><time>2026-02-28T17:41:49.000Z</time></trkpt>
        <trkpt lat="28.8275396" lon="105.2969523"><ele>326.25</ele><time>2026-02-28T17:41:57.000Z</time></trkpt>
        <trkpt lat="28.8274426" lon="105.2969828"><ele>326.35</ele><time>2026-02-28T17:42:07.000Z</time></trkpt>
        <trkpt lat="28.8273452" lon="105.2970139"><ele>325.8</ele><time>2026-02-28T17:42:15.000Z</time></trkpt>
        <trkpt lat="28.8273209" lon="105.2971002"><ele>326.12</ele><time>2026-02-28T17:42:23.000Z</time></trkpt>
        <trkpt lat="28.8273949" lon="105.2971376"><ele>323.8</ele><time>2026-02-28T17:42:33.000Z</time></trkpt>
        <trkpt lat="28.8274732" lon="105.2972048"><ele>323.44</ele><time>2026-02-28T17:42:45.000Z</time></trkpt>
        <trkpt lat="28.8275577" lon="105.2971629"><ele>325.69</ele><time>2026-02-28T17:42:55.000Z</time></trkpt>
        <trkpt lat="28.8275521" lon="105.2972193"><ele>326.67</ele><time>2026-02-28T17:43:17.000Z</time></trkpt>
        <trkpt lat="28.8274782" lon="105.2972826"><ele>329.88</ele><time>2026-02-28T17:43:29.000Z</time></trkpt>
        <trkpt lat="28.8273722" lon="105.2973336"><ele>332.5</ele><time>2026-02-28T17:43:41.000Z</time></trkpt>
        <trkpt lat="28.8272657" lon="105.2973665"><ele>334.68</ele><time>2026-02-28T17:43:51.000Z</time></trkpt>
        <trkpt lat="28.8271555" lon="105.2973785"><ele>336.55</ele><time>2026-02-28T17:44:01.000Z</time></trkpt>
        <trkpt lat="28.827045" lon="105.2973731"><ele>338.59</ele><time>2026-02-28T17:44:11.000Z</time></trkpt>
        <trkpt lat="28.8269373" lon="105.2973854"><ele>339.07</ele><time>2026-02-28T17:44:23.000Z</time></trkpt>
        <trkpt lat="28.8268402" lon="105.2974027"><ele>340.98</ele><time>2026-02-28T17:44:35.000Z</time></trkpt>
        <trkpt lat="28.8267651" lon="105.2974597"><ele>344.89</ele><time>2026-02-28T17:44:47.000Z</time></trkpt>
        <trkpt lat="28.8266866" lon="105.2975113"><ele>345.96</ele><time>2026-02-28T17:44:57.000Z</time></trkpt>
        <trkpt lat="28.8265971" lon="105.2975593"><ele>346.9</ele><time>2026-02-28T17:45:07.000Z</time></trkpt>
        <trkpt lat="28.8264995" lon="105.2975902"><ele>347.87</ele><time>2026-02-28T17:45:17.000Z</time></trkpt>
        <trkpt lat="28.8264061" lon="105.2975944"><ele>348.12</ele><time>2026-02-28T17:45:27.000Z</time></trkpt>
        <trkpt lat="28.8263115" lon="105.2976236"><ele>349.14</ele><time>2026-02-28T17:45:39.000Z</time></trkpt>
        <trkpt lat="28.8262301" lon="105.2976794"><ele>350.28</ele><time>2026-02-28T17:45:53.000Z</time></trkpt>
        <trkpt lat="28.8261658" lon="105.2977547"><ele>351.13</ele><time>2026-02-28T17:46:09.000Z</time></trkpt>
        <trkpt lat="28.8261081" lon="105.297842"><ele>352.34</ele><time>2026-02-28T17:46:41.000Z</time></trkpt>
        <trkpt lat="28.8260341" lon="105.2979167"><ele>359.27</ele><time>2026-02-28T17:46:59.000Z</time></trkpt>
        <trkpt lat="28.8259609" lon="105.2979952"><ele>363</ele><time>2026-02-28T17:47:17.000Z</time></trkpt>
        <trkpt lat="28.8258934" lon="105.2980897"><ele>367.83</ele><time>2026-02-28T17:47:35.000Z</time></trkpt>
        <trkpt lat="28.8258019" lon="105.2981702"><ele>370.81</ele><time>2026-02-28T17:48:03.000Z</time></trkpt>
        <trkpt lat="28.8257885" lon="105.2981998"><ele>371.43</ele><time>2026-02-28T17:48:25.000Z</time></trkpt>
        <trkpt lat="28.8258476" lon="105.2982506"><ele>374.33</ele><time>2026-02-28T17:48:35.000Z</time></trkpt>
        <trkpt lat="28.8258887" lon="105.2983022"><ele>378.26</ele><time>2026-02-28T17:48:45.000Z</time></trkpt>
        <trkpt lat="28.8258922" lon="105.2983974"><ele>381.4</ele><time>2026-02-28T17:49:23.000Z</time></trkpt>
        <trkpt lat="28.8258315" lon="105.2984685"><ele>386.27</ele><time>2026-02-28T17:49:39.000Z</time></trkpt>
        <trkpt lat="28.8257529" lon="105.2985444"><ele>390.5</ele><time>2026-02-28T17:50:27.000Z</time></trkpt>
        <trkpt lat="28.8256817" lon="105.2986272"><ele>394.93</ele><time>2026-02-28T17:50:45.000Z</time></trkpt>
        <trkpt lat="28.8256779" lon="105.2987276"><ele>397.66</ele><time>2026-02-28T17:51:15.000Z</time></trkpt>
        <trkpt lat="28.8256156" lon="105.2987226"><ele>400.87</ele><time>2026-02-28T17:51:45.000Z</time></trkpt>
        <trkpt lat="28.8256946" lon="105.2986679"><ele>406.04</ele><time>2026-02-28T17:55:17.000Z</time></trkpt>
        <trkpt lat="28.8256713" lon="105.2986737"><ele>412.61</ele><time>2026-02-28T17:55:19.000Z</time></trkpt>
        <trkpt lat="28.8255805" lon="105.2986688"><ele>417.11</ele><time>2026-02-28T17:55:35.000Z</time></trkpt>
        <trkpt lat="28.8254681" lon="105.2986881"><ele>420.5</ele><time>2026-02-28T17:56:25.000Z</time></trkpt>
        <trkpt lat="28.8254171" lon="105.2986897"><ele>422.32</ele><time>2026-02-28T17:56:31.000Z</time></trkpt>
        <trkpt lat="28.825497" lon="105.2986204"><ele>423.89</ele><time>2026-02-28T17:58:37.000Z</time></trkpt>
        <trkpt lat="28.8255458" lon="105.298695"><ele>428.15</ele><time>2026-02-28T17:58:49.000Z</time></trkpt>
        <trkpt lat="28.8254617" lon="105.2987183"><ele>430.91</ele><time>2026-02-28T17:59:07.000Z</time></trkpt>
        <trkpt lat="28.8254186" lon="105.2987254"><ele>433.09</ele><time>2026-02-28T17:59:09.000Z</time></trkpt>
        <trkpt lat="28.8254563" lon="105.2988239"><ele>435.08</ele><time>2026-02-28T18:00:57.000Z</time></trkpt>
        <trkpt lat="28.82551" lon="105.298912"><ele>440.45</ele><time>2026-02-28T18:01:07.000Z</time></trkpt>
        <trkpt lat="28.8255761" lon="105.2988611"><ele>444.86</ele><time>2026-02-28T18:01:15.000Z</time></trkpt>
        <trkpt lat="28.8255889" lon="105.2988358"><ele>447.19</ele><time>2026-02-28T18:01:19.000Z</time></trkpt>
        <trkpt lat="28.825521" lon="105.2988725"><ele>448.78</ele><time>2026-02-28T18:01:51.000Z</time></trkpt>
        <trkpt lat="28.8254251" lon="105.2988564"><ele>449.5</ele><time>2026-02-28T18:02:03.000Z</time></trkpt>
        <trkpt lat="28.8253129" lon="105.2988476"><ele>450.53</ele><time>2026-02-28T18:02:55.000Z</time></trkpt>
        <trkpt lat="28.8252057" lon="105.2988452"><ele>451.43</ele><time>2026-02-28T18:03:03.000Z</time></trkpt>
        <trkpt lat="28.8251041" lon="105.2988537"><ele>453.46</ele><time>2026-02-28T18:03:13.000Z</time></trkpt>
        <trkpt lat="28.8250085" lon="105.2988741"><ele>454.97</ele><time>2026-02-28T18:03:21.000Z</time></trkpt>
        <trkpt lat="28.8249192" lon="105.2989064"><ele>456.88</ele><time>2026-02-28T18:03:31.000Z</time></trkpt>
        <trkpt lat="28.8249022" lon="105.298916"><ele>459.35</ele><time>2026-02-28T18:03:33.000Z</time></trkpt>
        <trkpt lat="28.8248449" lon="105.2989657"><ele>460.62</ele><time>2026-02-28T18:03:43.000Z</time></trkpt>
        <trkpt lat="28.82478" lon="105.2990398"><ele>461.57</ele><time>2026-02-28T18:03:53.000Z</time></trkpt>
        <trkpt lat="28.8247134" lon="105.2991269"><ele>461.84</ele><time>2026-02-28T18:04:03.000Z</time></trkpt>
        <trkpt lat="28.8246438" lon="105.2992237"><ele>461.31</ele><time>2026-02-28T18:04:13.000Z</time></trkpt>
        <trkpt lat="28.8245709" lon="105.2993107"><ele>460.55</ele><time>2026-02-28T18:04:23.000Z</time></trkpt>
        <trkpt lat="28.8244857" lon="105.2993826"><ele>459.58</ele><time>2026-02-28T18:04:33.000Z</time></trkpt>
        <trkpt lat="28.824415" lon="105.299473"><ele>458.54</ele><time>2026-02-28T18:04:43.000Z</time></trkpt>
        <trkpt lat="28.8243718" lon="105.2995727"><ele>456.73</ele><time>2026-02-28T18:04:51.000Z</time></trkpt>
        <trkpt lat="28.8243154" lon="105.2996588"><ele>457.59</ele><time>2026-02-28T18:05:03.000Z</time></trkpt>
        <trkpt lat="28.8242612" lon="105.2997577"><ele>457.22</ele><time>2026-02-28T18:05:45.000Z</time></trkpt>
        <trkpt lat="28.8242055" lon="105.2998604"><ele>457.8</ele><time>2026-02-28T18:05:55.000Z</time></trkpt>
        <trkpt lat="28.8241347" lon="105.299944"><ele>455.99</ele><time>2026-02-28T18:06:05.000Z</time></trkpt>
        <trkpt lat="28.8240558" lon="105.3"><ele>453.99</ele><time>2026-02-28T18:06:13.000Z</time></trkpt>
        <trkpt lat="28.8239802" lon="105.3000585"><ele>453.22</ele><time>2026-02-28T18:06:27.000Z</time></trkpt>
        <trkpt lat="28.8238916" lon="105.3000606"><ele>454.03</ele><time>2026-02-28T18:07:05.000Z</time></trkpt>
        <trkpt lat="28.823791" lon="105.300032"><ele>454.75</ele><time>2026-02-28T18:07:17.000Z</time></trkpt>
        <trkpt lat="28.8236918" lon="105.2999829"><ele>454.97</ele><time>2026-02-28T18:07:27.000Z</time></trkpt>
        <trkpt lat="28.8236054" lon="105.299924"><ele>456.23</ele><time>2026-02-28T18:07:35.000Z</time></trkpt>
        <trkpt lat="28.8235322" lon="105.2998543"><ele>457.27</ele><time>2026-02-28T18:07:45.000Z</time></trkpt>
        <trkpt lat="28.823478" lon="105.2997619"><ele>457.92</ele><time>2026-02-28T18:07:53.000Z</time></trkpt>
        <trkpt lat="28.8234029" lon="105.2996732"><ele>460.66</ele><time>2026-02-28T18:08:03.000Z</time></trkpt>
        <trkpt lat="28.8233319" lon="105.2995884"><ele>463.68</ele><time>2026-02-28T18:08:11.000Z</time></trkpt>
        <trkpt lat="28.8232548" lon="105.2995302"><ele>466.42</ele><time>2026-02-28T18:08:17.000Z</time></trkpt>
        <trkpt lat="28.8231539" lon="105.2994941"><ele>468.06</ele><time>2026-02-28T18:08:27.000Z</time></trkpt>
        <trkpt lat="28.8230508" lon="105.2994548"><ele>468.85</ele><time>2026-02-28T18:08:39.000Z</time></trkpt>
        <trkpt lat="28.8229654" lon="105.2993846"><ele>469.49</ele><time>2026-02-28T18:08:51.000Z</time></trkpt>
        <trkpt lat="28.8229002" lon="105.2992915"><ele>469.81</ele><time>2026-02-28T18:09:01.000Z</time></trkpt>
        <trkpt lat="28.8228176" lon="105.2992542"><ele>471.65</ele><time>2026-02-28T18:09:09.000Z</time></trkpt>
        <trkpt lat="28.8227625" lon="105.2992427"><ele>473.37</ele><time>2026-02-28T18:09:15.000Z</time></trkpt>
        <trkpt lat="28.8226925" lon="105.2991817"><ele>473.84</ele><time>2026-02-28T18:09:25.000Z</time></trkpt>
        <trkpt lat="28.8226732" lon="105.2990822"><ele>474.48</ele><time>2026-02-28T18:09:33.000Z</time></trkpt>
        <trkpt lat="28.8227037" lon="105.2989656"><ele>474.17</ele><time>2026-02-28T18:09:43.000Z</time></trkpt>
        <trkpt lat="28.8227287" lon="105.2988419"><ele>474.49</ele><time>2026-02-28T18:09:53.000Z</time></trkpt>
        <trkpt lat="28.8227252" lon="105.2987077"><ele>475.28</ele><time>2026-02-28T18:10:03.000Z</time></trkpt>
        <trkpt lat="28.8226576" lon="105.2987082"><ele>475.84</ele><time>2026-02-28T18:10:21.000Z</time></trkpt>
        <trkpt lat="28.8226259" lon="105.2987534"><ele>476.02</ele><time>2026-02-28T18:10:27.000Z</time></trkpt>
        <trkpt lat="28.8225706" lon="105.2988374"><ele>477.28</ele><time>2026-02-28T18:10:41.000Z</time></trkpt>
        <trkpt lat="28.8225056" lon="105.2989418"><ele>478.46</ele><time>2026-02-28T18:10:53.000Z</time></trkpt>
        <trkpt lat="28.8224583" lon="105.2990524"><ele>480.17</ele><time>2026-02-28T18:11:03.000Z</time></trkpt>
        <trkpt lat="28.8224289" lon="105.2991643"><ele>480.77</ele><time>2026-02-28T18:11:13.000Z</time></trkpt>
        <trkpt lat="28.8224055" lon="105.299276"><ele>481.8</ele><time>2026-02-28T18:11:23.000Z</time></trkpt>
        <trkpt lat="28.8223947" lon="105.2993996"><ele>483.64</ele><time>2026-02-28T18:11:35.000Z</time></trkpt>
        <trkpt lat="28.822411" lon="105.2995134"><ele>488.31</ele><time>2026-02-28T18:11:45.000Z</time></trkpt>
        <trkpt lat="28.822473" lon="105.2995998"><ele>491.54</ele><time>2026-02-28T18:11:55.000Z</time></trkpt>
        <trkpt lat="28.8225569" lon="105.2996692"><ele>495.01</ele><time>2026-02-28T18:12:03.000Z</time></trkpt>
        <trkpt lat="28.8226561" lon="105.2997295"><ele>496.93</ele><time>2026-02-28T18:12:11.000Z</time></trkpt>
        <trkpt lat="28.8227371" lon="105.2998121"><ele>500.75</ele><time>2026-02-28T18:12:21.000Z</time></trkpt>
        <trkpt lat="28.822765" lon="105.2999136"><ele>502.28</ele><time>2026-02-28T18:12:31.000Z</time></trkpt>
        <trkpt lat="28.8227387" lon="105.3000178"><ele>503.48</ele><time>2026-02-28T18:12:43.000Z</time></trkpt>
        <trkpt lat="28.8226665" lon="105.3000913"><ele>502.78</ele><time>2026-02-28T18:12:51.000Z</time></trkpt>
        <trkpt lat="28.8225737" lon="105.300161"><ele>502.45</ele><time>2026-02-28T18:13:01.000Z</time></trkpt>
        <trkpt lat="28.8224801" lon="105.3002388"><ele>501.55</ele><time>2026-02-28T18:13:11.000Z</time></trkpt>
        <trkpt lat="28.8224069" lon="105.3003224"><ele>499.58</ele><time>2026-02-28T18:13:19.000Z</time></trkpt>
        <trkpt lat="28.8223313" lon="105.3004186"><ele>498.55</ele><time>2026-02-28T18:13:27.000Z</time></trkpt>
        <trkpt lat="28.8222454" lon="105.3004946"><ele>498.57</ele><time>2026-02-28T18:13:35.000Z</time></trkpt>
        <trkpt lat="28.8221472" lon="105.3005392"><ele>499.56</ele><time>2026-02-28T18:13:45.000Z</time></trkpt>
        <trkpt lat="28.8220563" lon="105.3005847"><ele>500.07</ele><time>2026-02-28T18:13:53.000Z</time></trkpt>
        <trkpt lat="28.8219773" lon="105.3006657"><ele>500.86</ele><time>2026-02-28T18:14:01.000Z</time></trkpt>
        <trkpt lat="28.8219492" lon="105.3007797"><ele>502.58</ele><time>2026-02-28T18:14:11.000Z</time></trkpt>
        <trkpt lat="28.8219612" lon="105.3008895"><ele>503</ele><time>2026-02-28T18:14:19.000Z</time></trkpt>
        <trkpt lat="28.8220189" lon="105.3009894"><ele>504.27</ele><time>2026-02-28T18:14:27.000Z</time></trkpt>
        <trkpt lat="28.8220822" lon="105.3010874"><ele>505.28</ele><time>2026-02-28T18:14:37.000Z</time></trkpt>
        <trkpt lat="28.8221301" lon="105.3011865"><ele>505.59</ele><time>2026-02-28T18:14:47.000Z</time></trkpt>
        <trkpt lat="28.8221071" lon="105.3012909"><ele>507.15</ele><time>2026-02-28T18:14:57.000Z</time></trkpt>
        <trkpt lat="28.8220774" lon="105.301404"><ele>507.5</ele><time>2026-02-28T18:15:07.000Z</time></trkpt>
        <trkpt lat="28.8220705" lon="105.3015244"><ele>509.02</ele><time>2026-02-28T18:15:17.000Z</time></trkpt>
        <trkpt lat="28.822051" lon="105.3016504"><ele>511.68</ele><time>2026-02-28T18:15:29.000Z</time></trkpt>
        <trkpt lat="28.8219752" lon="105.3017172"><ele>513.86</ele><time>2026-02-28T18:15:41.000Z</time></trkpt>
        <trkpt lat="28.8218753" lon="105.3017374"><ele>516.89</ele><time>2026-02-28T18:15:51.000Z</time></trkpt>
        <trkpt lat="28.8218076" lon="105.3018087"><ele>518.89</ele><time>2026-02-28T18:16:01.000Z</time></trkpt>
        <trkpt lat="28.8217762" lon="105.3019069"><ele>521.12</ele><time>2026-02-28T18:16:09.000Z</time></trkpt>
        <trkpt lat="28.8217601" lon="105.302013"><ele>521.79</ele><time>2026-02-28T18:16:17.000Z</time></trkpt>
        <trkpt lat="28.8217368" lon="105.3021344"><ele>522.42</ele><time>2026-02-28T18:16:27.000Z</time></trkpt>
        <trkpt lat="28.8217158" lon="105.3022453"><ele>522.92</ele><time>2026-02-28T18:16:35.000Z</time></trkpt>
        <trkpt lat="28.8216939" lon="105.3023575"><ele>522.94</ele><time>2026-02-28T18:16:43.000Z</time></trkpt>
        <trkpt lat="28.8216788" lon="105.3024661"><ele>522.34</ele><time>2026-02-28T18:16:51.000Z</time></trkpt>
        <trkpt lat="28.8216823" lon="105.3025806"><ele>521.6</ele><time>2026-02-28T18:16:59.000Z</time></trkpt>
        <trkpt lat="28.8217141" lon="105.3026956"><ele>521.76</ele><time>2026-02-28T18:17:07.000Z</time></trkpt>
        <trkpt lat="28.8217359" lon="105.3027316"><ele>522.07</ele><time>2026-02-28T18:17:13.000Z</time></trkpt>
        <trkpt lat="28.8218168" lon="105.3027228"><ele>521.68</ele><time>2026-02-28T18:17:31.000Z</time></trkpt>
        <trkpt lat="28.8218896" lon="105.302653"><ele>520.73</ele><time>2026-02-28T18:17:39.000Z</time></trkpt>
        <trkpt lat="28.8219635" lon="105.302572"><ele>519.32</ele><time>2026-02-28T18:17:47.000Z</time></trkpt>
        <trkpt lat="28.82204" lon="105.3024883"><ele>518.22</ele><time>2026-02-28T18:17:55.000Z</time></trkpt>
        <trkpt lat="28.8221339" lon="105.3024474"><ele>516.35</ele><time>2026-02-28T18:18:03.000Z</time></trkpt>
        <trkpt lat="28.8222326" lon="105.3024718"><ele>515.49</ele><time>2026-02-28T18:18:11.000Z</time></trkpt>
        <trkpt lat="28.8223112" lon="105.3025396"><ele>513.66</ele><time>2026-02-28T18:18:19.000Z</time></trkpt>
        <trkpt lat="28.822388" lon="105.3026227"><ele>511.48</ele><time>2026-02-28T18:18:27.000Z</time></trkpt>
        <trkpt lat="28.8224691" lon="105.3026827"><ele>510.45</ele><time>2026-02-28T18:18:35.000Z</time></trkpt>
        <trkpt lat="28.8225673" lon="105.3027023"><ele>509.4</ele><time>2026-02-28T18:18:43.000Z</time></trkpt>
        <trkpt lat="28.8226651" lon="105.3027101"><ele>509.13</ele><time>2026-02-28T18:18:51.000Z</time></trkpt>
        <trkpt lat="28.8227631" lon="105.3027387"><ele>507.78</ele><time>2026-02-28T18:18:59.000Z</time></trkpt>
        <trkpt lat="28.8228649" lon="105.3027392"><ele>507.09</ele><time>2026-02-28T18:19:09.000Z</time></trkpt>
        <trkpt lat="28.8229439" lon="105.302688"><ele>505.7</ele><time>2026-02-28T18:19:19.000Z</time></trkpt>
        <trkpt lat="28.8229888" lon="105.3025854"><ele>505.26</ele><time>2026-02-28T18:19:29.000Z</time></trkpt>
        <trkpt lat="28.8230273" lon="105.3024602"><ele>505.67</ele><time>2026-02-28T18:19:39.000Z</time></trkpt>
        <trkpt lat="28.8230494" lon="105.3023834"><ele>506.2</ele><time>2026-02-28T18:19:45.000Z</time></trkpt>
        <trkpt lat="28.8231122" lon="105.3023195"><ele>506.76</ele><time>2026-02-28T18:20:21.000Z</time></trkpt>
        <trkpt lat="28.8231904" lon="105.3023514"><ele>507.17</ele><time>2026-02-28T18:20:35.000Z</time></trkpt>
        <trkpt lat="28.8232519" lon="105.3023023"><ele>507.24</ele><time>2026-02-28T18:20:47.000Z</time></trkpt>
        <trkpt lat="28.8232717" lon="105.302201"><ele>507.77</ele><time>2026-02-28T18:21:01.000Z</time></trkpt>
        <trkpt lat="28.8233448" lon="105.3021684"><ele>509.43</ele><time>2026-02-28T18:21:17.000Z</time></trkpt>
        <trkpt lat="28.8234355" lon="105.3021517"><ele>508.7</ele><time>2026-02-28T18:21:27.000Z</time></trkpt>
        <trkpt lat="28.8234245" lon="105.3022245"><ele>508.35</ele><time>2026-02-28T18:22:01.000Z</time></trkpt>
        <trkpt lat="28.8234507" lon="105.3023313"><ele>513.05</ele><time>2026-02-28T18:22:29.000Z</time></trkpt>
        <trkpt lat="28.8234826" lon="105.3024438"><ele>518.26</ele><time>2026-02-28T18:22:53.000Z</time></trkpt>
        <trkpt lat="28.8235538" lon="105.3024474"><ele>523.25</ele><time>2026-02-28T18:23:31.000Z</time></trkpt>
        <trkpt lat="28.8235794" lon="105.302398"><ele>528.7</ele><time>2026-02-28T18:23:41.000Z</time></trkpt>
        <trkpt lat="28.8236364" lon="105.3024306"><ele>533.97</ele><time>2026-02-28T18:24:25.000Z</time></trkpt>
        <trkpt lat="28.8236484" lon="105.3024322"><ele>537.91</ele><time>2026-02-28T18:24:27.000Z</time></trkpt>
        <trkpt lat="28.823597" lon="105.3024824"><ele>540.32</ele><time>2026-02-28T18:25:23.000Z</time></trkpt>
        <trkpt lat="28.823619" lon="105.3024373"><ele>543.65</ele><time>2026-02-28T18:25:53.000Z</time></trkpt>
        <trkpt lat="28.8236284" lon="105.3024166"><ele>546.21</ele><time>2026-02-28T18:25:55.000Z</time></trkpt>
        <trkpt lat="28.8236331" lon="105.3024905"><ele>547.79</ele><time>2026-02-28T18:26:11.000Z</time></trkpt>
        <trkpt lat="28.8236026" lon="105.3025994"><ele>550.38</ele><time>2026-02-28T18:26:41.000Z</time></trkpt>
        <trkpt lat="28.8236258" lon="105.3026636"><ele>551.2</ele><time>2026-02-28T18:26:57.000Z</time></trkpt>
        <trkpt lat="28.8237035" lon="105.3026615"><ele>552.39</ele><time>2026-02-28T18:27:33.000Z</time></trkpt>
        <trkpt lat="28.8237351" lon="105.3025724"><ele>554.19</ele><time>2026-02-28T18:28:25.000Z</time></trkpt>
        <trkpt lat="28.8238143" lon="105.302541"><ele>558.36</ele><time>2026-02-28T18:28:41.000Z</time></trkpt>
        <trkpt lat="28.8238626" lon="105.3026071"><ele>560.76</ele><time>2026-02-28T18:29:17.000Z</time></trkpt>
        <trkpt lat="28.8238782" lon="105.3027227"><ele>568.51</ele><time>2026-02-28T18:30:13.000Z</time></trkpt>
        <trkpt lat="28.8239013" lon="105.3028418"><ele>573.26</ele><time>2026-02-28T18:30:27.000Z</time></trkpt>
        <trkpt lat="28.8239568" lon="105.3029359"><ele>575.18</ele><time>2026-02-28T18:30:37.000Z</time></trkpt>
        <trkpt lat="28.8240414" lon="105.3030031"><ele>576.44</ele><time>2026-02-28T18:30:49.000Z</time></trkpt>
        <trkpt lat="28.8241128" lon="105.3030775"><ele>577.66</ele><time>2026-02-28T18:30:59.000Z</time></trkpt>
        <trkpt lat="28.8241841" lon="105.3031648"><ele>579</ele><time>2026-02-28T18:31:11.000Z</time></trkpt>
        <trkpt lat="28.8242208" lon="105.3032716"><ele>579.02</ele><time>2026-02-28T18:31:25.000Z</time></trkpt>
        <trkpt lat="28.8242328" lon="105.3033798"><ele>580.26</ele><time>2026-02-28T18:31:35.000Z</time></trkpt>
        <trkpt lat="28.8242535" lon="105.3034815"><ele>580.13</ele><time>2026-02-28T18:31:45.000Z</time></trkpt>
        <trkpt lat="28.8243061" lon="105.3035119"><ele>580.88</ele><time>2026-02-28T18:31:59.000Z</time></trkpt>
        <trkpt lat="28.824347" lon="105.3035845"><ele>582.23</ele><time>2026-02-28T18:32:25.000Z</time></trkpt>
        <trkpt lat="28.8244048" lon="105.3036649"><ele>581.69</ele><time>2026-02-28T18:32:46.000Z</time></trkpt>
        <trkpt lat="28.8244264" lon="105.3037747"><ele>582.65</ele><time>2026-02-28T18:32:58.000Z</time></trkpt>
        <trkpt lat="28.8244241" lon="105.3038864"><ele>583.14</ele><time>2026-02-28T18:33:10.000Z</time></trkpt>
        <trkpt lat="28.824378" lon="105.3039836"><ele>583.03</ele><time>2026-02-28T18:33:18.000Z</time></trkpt>
        <trkpt lat="28.8243468" lon="105.3040849"><ele>584.14</ele><time>2026-02-28T18:33:26.000Z</time></trkpt>
        <trkpt lat="28.824316" lon="105.3041932"><ele>584.02</ele><time>2026-02-28T18:33:34.000Z</time></trkpt>
        <trkpt lat="28.8243178" lon="105.3042981"><ele>584.09</ele><time>2026-02-28T18:33:44.000Z</time></trkpt>
        <trkpt lat="28.8243298" lon="105.3044067"><ele>583.23</ele><time>2026-02-28T18:33:56.000Z</time></trkpt>
        <trkpt lat="28.8243699" lon="105.3045009"><ele>581.76</ele><time>2026-02-28T18:34:08.000Z</time></trkpt>
        <trkpt lat="28.824397" lon="105.3046051"><ele>580.18</ele><time>2026-02-28T18:34:18.000Z</time></trkpt>
        <trkpt lat="28.8244494" lon="105.3047052"><ele>579.97</ele><time>2026-02-28T18:34:58.000Z</time></trkpt>
        <trkpt lat="28.8245035" lon="105.3048107"><ele>578.3</ele><time>2026-02-28T18:35:08.000Z</time></trkpt>
        <trkpt lat="28.8245266" lon="105.3049286"><ele>578.27</ele><time>2026-02-28T18:35:24.000Z</time></trkpt>
        <trkpt lat="28.824524" lon="105.3050375"><ele>578.62</ele><time>2026-02-28T18:35:36.000Z</time></trkpt>
        <trkpt lat="28.8245223" lon="105.3051439"><ele>580.63</ele><time>2026-02-28T18:35:48.000Z</time></trkpt>
        <trkpt lat="28.8245281" lon="105.3052475"><ele>584.14</ele><time>2026-02-28T18:35:58.000Z</time></trkpt>
        <trkpt lat="28.8245787" lon="105.3053441"><ele>587.79</ele><time>2026-02-28T18:36:10.000Z</time></trkpt>
        <trkpt lat="28.8246452" lon="105.3054233"><ele>589.27</ele><time>2026-02-28T18:36:22.000Z</time></trkpt>
        <trkpt lat="28.8247463" lon="105.305443"><ele>590.74</ele><time>2026-02-28T18:36:34.000Z</time></trkpt>
        <trkpt lat="28.8248544" lon="105.3053995"><ele>593.51</ele><time>2026-02-28T18:36:44.000Z</time></trkpt>
        <trkpt lat="28.8249197" lon="105.3053062"><ele>598.05</ele><time>2026-02-28T18:37:08.000Z</time></trkpt>
        <trkpt lat="28.8250123" lon="105.3052519"><ele>600.52</ele><time>2026-02-28T18:37:20.000Z</time></trkpt>
        <trkpt lat="28.825113" lon="105.3052462"><ele>601.5</ele><time>2026-02-28T18:37:32.000Z</time></trkpt>
        <trkpt lat="28.8252068" lon="105.3052189"><ele>600.14</ele><time>2026-02-28T18:37:42.000Z</time></trkpt>
        <trkpt lat="28.8253079" lon="105.3051832"><ele>598.76</ele><time>2026-02-28T18:37:50.000Z</time></trkpt>
        <trkpt lat="28.8254056" lon="105.3052121"><ele>597.31</ele><time>2026-02-28T18:38:02.000Z</time></trkpt>
        <trkpt lat="28.8255053" lon="105.3052332"><ele>596.37</ele><time>2026-02-28T18:38:12.000Z</time></trkpt>
        <trkpt lat="28.825603" lon="105.305216"><ele>595.67</ele><time>2026-02-28T18:38:24.000Z</time></trkpt>
        <trkpt lat="28.8256924" lon="105.3052288"><ele>598.01</ele><time>2026-02-28T18:38:34.000Z</time></trkpt>
        <trkpt lat="28.8257602" lon="105.3051632"><ele>600.15</ele><time>2026-02-28T18:38:46.000Z</time></trkpt>
        <trkpt lat="28.8258162" lon="105.3050653"><ele>600.67</ele><time>2026-02-28T18:38:58.000Z</time></trkpt>
        <trkpt lat="28.82589" lon="105.3050042"><ele>599.27</ele><time>2026-02-28T18:39:06.000Z</time></trkpt>
        <trkpt lat="28.825927" lon="105.3049798"><ele>599.21</ele><time>2026-02-28T18:39:08.000Z</time></trkpt>
        <trkpt lat="28.8259278" lon="105.3050586"><ele>598.88</ele><time>2026-02-28T18:39:32.000Z</time></trkpt>
        <trkpt lat="28.8259429" lon="105.3051704"><ele>598.09</ele><time>2026-02-28T18:39:46.000Z</time></trkpt>
        <trkpt lat="28.8259641" lon="105.3052949"><ele>599.92</ele><time>2026-02-28T18:40:02.000Z</time></trkpt>
        <trkpt lat="28.8259474" lon="105.3054115"><ele>599.74</ele><time>2026-02-28T18:40:14.000Z</time></trkpt>
        <trkpt lat="28.8259042" lon="105.3055188"><ele>598.74</ele><time>2026-02-28T18:40:32.000Z</time></trkpt>
        <trkpt lat="28.8258435" lon="105.305614"><ele>597.46</ele><time>2026-02-28T18:40:44.000Z</time></trkpt>
        <trkpt lat="28.8258343" lon="105.3056481"><ele>596.37</ele><time>2026-02-28T18:40:48.000Z</time></trkpt>
        <trkpt lat="28.8257863" lon="105.3057212"><ele>595</ele><time>2026-02-28T18:41:22.000Z</time></trkpt>
        <trkpt lat="28.8257887" lon="105.3058233"><ele>592.18</ele><time>2026-02-28T18:41:34.000Z</time></trkpt>
        <trkpt lat="28.8258344" lon="105.3059186"><ele>589.85</ele><time>2026-02-28T18:41:42.000Z</time></trkpt>
        <trkpt lat="28.8258703" lon="105.3060208"><ele>587.42</ele><time>2026-02-28T18:41:54.000Z</time></trkpt>
        <trkpt lat="28.8259138" lon="105.3061222"><ele>586.56</ele><time>2026-02-28T18:42:40.000Z</time></trkpt>
        <trkpt lat="28.8259419" lon="105.3062332"><ele>586.62</ele><time>2026-02-28T18:42:54.000Z</time></trkpt>
        <trkpt lat="28.8260092" lon="105.3063251"><ele>587.77</ele><time>2026-02-28T18:43:06.000Z</time></trkpt>
        <trkpt lat="28.8260729" lon="105.3064141"><ele>588.56</ele><time>2026-02-28T18:43:16.000Z</time></trkpt>
        <trkpt lat="28.8261128" lon="105.3065231"><ele>589.49</ele><time>2026-02-28T18:43:28.000Z</time></trkpt>
        <trkpt lat="28.8261365" lon="105.3066333"><ele>589.29</ele><time>2026-02-28T18:43:38.000Z</time></trkpt>
        <trkpt lat="28.8261346" lon="105.3067387"><ele>587.18</ele><time>2026-02-28T18:43:48.000Z</time></trkpt>
        <trkpt lat="28.8261254" lon="105.3068529"><ele>586.25</ele><time>2026-02-28T18:44:02.000Z</time></trkpt>
        <trkpt lat="28.8261367" lon="105.3069663"><ele>586.42</ele><time>2026-02-28T18:44:12.000Z</time></trkpt>
        <trkpt lat="28.8260961" lon="105.3070655"><ele>585.6</ele><time>2026-02-28T18:44:24.000Z</time></trkpt>
        <trkpt lat="28.8260805" lon="105.3071694"><ele>585.82</ele><time>2026-02-28T18:44:58.000Z</time></trkpt>
        <trkpt lat="28.8261235" lon="105.3072604"><ele>583.02</ele><time>2026-02-28T18:45:18.000Z</time></trkpt>
        <trkpt lat="28.8261004" lon="105.3073442"><ele>580</ele><time>2026-02-28T18:45:36.000Z</time></trkpt>
        <trkpt lat="28.8261565" lon="105.3073272"><ele>577.49</ele><time>2026-02-28T18:46:12.000Z</time></trkpt>
        <trkpt lat="28.8261663" lon="105.307403"><ele>572.67</ele><time>2026-02-28T18:46:24.000Z</time></trkpt>
        <trkpt lat="28.8261351" lon="105.3075071"><ele>570.99</ele><time>2026-02-28T18:46:38.000Z</time></trkpt>
        <trkpt lat="28.8261547" lon="105.3074697"><ele>569.77</ele><time>2026-02-28T18:46:58.000Z</time></trkpt>
        <trkpt lat="28.8262301" lon="105.3074336"><ele>568.05</ele><time>2026-02-28T18:47:20.000Z</time></trkpt>
        <trkpt lat="28.8263119" lon="105.3074628"><ele>558.51</ele><time>2026-02-28T18:47:30.000Z</time></trkpt>
        <trkpt lat="28.8264163" lon="105.3074419"><ele>553.75</ele><time>2026-02-28T18:48:04.000Z</time></trkpt>
        <trkpt lat="28.8265014" lon="105.307382"><ele>554.12</ele><time>2026-02-28T18:48:20.000Z</time></trkpt>
        <trkpt lat="28.8265439" lon="105.3072825"><ele>557.97</ele><time>2026-02-28T18:48:36.000Z</time></trkpt>
        <trkpt lat="28.8265561" lon="105.3071704"><ele>558.43</ele><time>2026-02-28T18:48:55.000Z</time></trkpt>
        <trkpt lat="28.8265991" lon="105.3071936"><ele>560.88</ele><time>2026-02-28T18:49:15.000Z</time></trkpt>
        <trkpt lat="28.8266744" lon="105.3071813"><ele>560.88</ele><time>2026-02-28T18:49:53.000Z</time></trkpt>
        <trkpt lat="28.8267458" lon="105.307247"><ele>558.5</ele><time>2026-02-28T18:50:17.000Z</time></trkpt>
        <trkpt lat="28.826764" lon="105.3072863"><ele>557.49</ele><time>2026-02-28T18:50:21.000Z</time></trkpt>
        <trkpt lat="28.8267737" lon="105.3073997"><ele>556.84</ele><time>2026-02-28T18:51:23.000Z</time></trkpt>
        <trkpt lat="28.8268287" lon="105.3074901"><ele>557.65</ele><time>2026-02-28T18:52:07.000Z</time></trkpt>
        <trkpt lat="28.8268871" lon="105.3074872"><ele>561.03</ele><time>2026-02-28T18:52:21.000Z</time></trkpt>
        <trkpt lat="28.8269716" lon="105.3074725"><ele>565.42</ele><time>2026-02-28T18:52:35.000Z</time></trkpt>
        <trkpt lat="28.8269753" lon="105.3075503"><ele>567.32</ele><time>2026-02-28T18:52:47.000Z</time></trkpt>
        <trkpt lat="28.8269658" lon="105.3076623"><ele>570.75</ele><time>2026-02-28T18:52:59.000Z</time></trkpt>
        <trkpt lat="28.8269862" lon="105.3077781"><ele>573.23</ele><time>2026-02-28T18:53:09.000Z</time></trkpt>
        <trkpt lat="28.8270268" lon="105.3078857"><ele>574.56</ele><time>2026-02-28T18:53:19.000Z</time></trkpt>
        <trkpt lat="28.8270684" lon="105.3079998"><ele>576.39</ele><time>2026-02-28T18:53:31.000Z</time></trkpt>
        <trkpt lat="28.8271113" lon="105.3081032"><ele>576.57</ele><time>2026-02-28T18:53:41.000Z</time></trkpt>
        <trkpt lat="28.8271817" lon="105.3081846"><ele>575.92</ele><time>2026-02-28T18:53:51.000Z</time></trkpt>
        <trkpt lat="28.8272607" lon="105.3082435"><ele>573.49</ele><time>2026-02-28T18:53:59.000Z</time></trkpt>
        <trkpt lat="28.8273443" lon="105.3083037"><ele>571.08</ele><time>2026-02-28T18:54:09.000Z</time></trkpt>
        <trkpt lat="28.8274526" lon="105.3083183"><ele>569.53</ele><time>2026-02-28T18:54:19.000Z</time></trkpt>
        <trkpt lat="28.8275631" lon="105.3083266"><ele>567.4</ele><time>2026-02-28T18:54:27.000Z</time></trkpt>
        <trkpt lat="28.8276521" lon="105.3083741"><ele>565.63</ele><time>2026-02-28T18:54:35.000Z</time></trkpt>
        <trkpt lat="28.8276664" lon="105.3084737"><ele>564.93</ele><time>2026-02-28T18:54:43.000Z</time></trkpt>
        <trkpt lat="28.8276447" lon="105.3085858"><ele>567.36</ele><time>2026-02-28T18:54:51.000Z</time></trkpt>
        <trkpt lat="28.8276022" lon="105.3087093"><ele>569.22</ele><time>2026-02-28T18:55:03.000Z</time></trkpt>
        <trkpt lat="28.8275785" lon="105.3088307"><ele>568.42</ele><time>2026-02-28T18:55:11.000Z</time></trkpt>
        <trkpt lat="28.8275767" lon="105.3089464"><ele>569.52</ele><time>2026-02-28T18:55:21.000Z</time></trkpt>
        <trkpt lat="28.8275572" lon="105.3090599"><ele>569.02</ele><time>2026-02-28T18:55:31.000Z</time></trkpt>
        <trkpt lat="28.8275271" lon="105.3090666"><ele>568.02</ele><time>2026-02-28T18:55:37.000Z</time></trkpt>
        <trkpt lat="28.8274469" lon="105.3090612"><ele>566.32</ele><time>2026-02-28T18:55:57.000Z</time></trkpt>
        <trkpt lat="28.8273455" lon="105.3090823"><ele>566.23</ele><time>2026-02-28T18:56:07.000Z</time></trkpt>
        <trkpt lat="28.8272835" lon="105.3091732"><ele>567.24</ele><time>2026-02-28T18:56:17.000Z</time></trkpt>
        <trkpt lat="28.8272854" lon="105.3092937"><ele>568.36</ele><time>2026-02-28T18:56:27.000Z</time></trkpt>
        <trkpt lat="28.8273081" lon="105.3094216"><ele>569.02</ele><time>2026-02-28T18:56:37.000Z</time></trkpt>
        <trkpt lat="28.8273368" lon="105.3095343"><ele>569.99</ele><time>2026-02-28T18:56:45.000Z</time></trkpt>
        <trkpt lat="28.8273699" lon="105.3096298"><ele>570.3</ele><time>2026-02-28T18:56:57.000Z</time></trkpt>
        <trkpt lat="28.8274267" lon="105.3097142"><ele>570.9</ele><time>2026-02-28T18:58:19.000Z</time></trkpt>
        <trkpt lat="28.8274512" lon="105.3098184"><ele>571</ele><time>2026-02-28T18:58:27.000Z</time></trkpt>
        <trkpt lat="28.8274972" lon="105.3099239"><ele>570.83</ele><time>2026-02-28T18:58:37.000Z</time></trkpt>
        <trkpt lat="28.8275736" lon="105.3100073"><ele>570.45</ele><time>2026-02-28T18:58:47.000Z</time></trkpt>
        <trkpt lat="28.8276331" lon="105.3100936"><ele>569.58</ele><time>2026-02-28T18:58:55.000Z</time></trkpt>
        <trkpt lat="28.8276322" lon="105.3102054"><ele>569.76</ele><time>2026-02-28T18:59:05.000Z</time></trkpt>
        <trkpt lat="28.8275882" lon="105.310324"><ele>570.04</ele><time>2026-02-28T18:59:15.000Z</time></trkpt>
        <trkpt lat="28.8275333" lon="105.3104377"><ele>570.72</ele><time>2026-02-28T18:59:23.000Z</time></trkpt>
        <trkpt lat="28.8274726" lon="105.3105455"><ele>570.4</ele><time>2026-02-28T18:59:31.000Z</time></trkpt>
        <trkpt lat="28.8274178" lon="105.310639"><ele>570.58</ele><time>2026-02-28T18:59:38.000Z</time></trkpt>
        <trkpt lat="28.8273679" lon="105.3107526"><ele>570.71</ele><time>2026-02-28T18:59:47.000Z</time></trkpt>
        <trkpt lat="28.8273202" lon="105.3108566"><ele>571.7</ele><time>2026-02-28T18:59:55.000Z</time></trkpt>
        <trkpt lat="28.8272199" lon="105.310923"><ele>573.03</ele><time>2026-02-28T19:00:01.000Z</time></trkpt>
        <trkpt lat="28.8271009" lon="105.3109479"><ele>573.04</ele><time>2026-02-28T19:00:07.000Z</time></trkpt>
        <trkpt lat="28.8269744" lon="105.3109452"><ele>571.8</ele><time>2026-02-28T19:00:15.000Z</time></trkpt>
        <trkpt lat="28.8268585" lon="105.3109378"><ele>570.29</ele><time>2026-02-28T19:00:23.000Z</time></trkpt>
        <trkpt lat="28.8267614" lon="105.3109381"><ele>570.07</ele><time>2026-02-28T19:00:29.000Z</time></trkpt>
        <trkpt lat="28.8266506" lon="105.3109434"><ele>569.76</ele><time>2026-02-28T19:00:37.000Z</time></trkpt>
        <trkpt lat="28.8265476" lon="105.3109457"><ele>569.45</ele><time>2026-02-28T19:00:45.000Z</time></trkpt>
        <trkpt lat="28.826442" lon="105.3109609"><ele>569.29</ele><time>2026-02-28T19:00:53.000Z</time></trkpt>
        <trkpt lat="28.8263425" lon="105.3109963"><ele>569.87</ele><time>2026-02-28T19:01:01.000Z</time></trkpt>
        <trkpt lat="28.826244" lon="105.3110172"><ele>571.14</ele><time>2026-02-28T19:01:09.000Z</time></trkpt>
        <trkpt lat="28.8261524" lon="105.3110519"><ele>572.18</ele><time>2026-02-28T19:01:17.000Z</time></trkpt>
        <trkpt lat="28.8260666" lon="105.3111118"><ele>572.89</ele><time>2026-02-28T19:01:25.000Z</time></trkpt>
        <trkpt lat="28.825982" lon="105.3111707"><ele>572.65</ele><time>2026-02-28T19:01:35.000Z</time></trkpt>
        <trkpt lat="28.8259692" lon="105.31111"><ele>571.72</ele><time>2026-02-28T19:01:57.000Z</time></trkpt>
        <trkpt lat="28.8260256" lon="105.3110238"><ele>568.91</ele><time>2026-02-28T19:02:07.000Z</time></trkpt>
        <trkpt lat="28.8259802" lon="105.3109579"><ele>566.05</ele><time>2026-02-28T19:02:25.000Z</time></trkpt>
        <trkpt lat="28.8259833" lon="105.3108616"><ele>565.17</ele><time>2026-02-28T19:02:55.000Z</time></trkpt>
        <trkpt lat="28.8259735" lon="105.3107523"><ele>562.08</ele><time>2026-02-28T19:03:17.000Z</time></trkpt>
        <trkpt lat="28.8259159" lon="105.3106645"><ele>557.74</ele><time>2026-02-28T19:03:29.000Z</time></trkpt>
        <trkpt lat="28.8259129" lon="105.3106079"><ele>553.92</ele><time>2026-02-28T19:03:35.000Z</time></trkpt>
        <trkpt lat="28.8258492" lon="105.3105612"><ele>550.47</ele><time>2026-02-28T19:03:53.000Z</time></trkpt>
        <trkpt lat="28.8258206" lon="105.310459"><ele>548.18</ele><time>2026-02-28T19:04:11.000Z</time></trkpt>
        <trkpt lat="28.8257369" lon="105.3104122"><ele>546.74</ele><time>2026-02-28T19:04:31.000Z</time></trkpt>
        <trkpt lat="28.8256881" lon="105.3103346"><ele>545.07</ele><time>2026-02-28T19:04:47.000Z</time></trkpt>
        <trkpt lat="28.8256229" lon="105.3102634"><ele>545.91</ele><time>2026-02-28T19:05:07.000Z</time></trkpt>
        <trkpt lat="28.8256039" lon="105.3103412"><ele>545.29</ele><time>2026-02-28T19:05:13.000Z</time></trkpt>
        <trkpt lat="28.8256647" lon="105.3104265"><ele>541.94</ele><time>2026-02-28T19:05:19.000Z</time></trkpt>
        <trkpt lat="28.8256195" lon="105.3104615"><ele>536.53</ele><time>2026-02-28T19:05:41.000Z</time></trkpt>
        <trkpt lat="28.8255672" lon="105.3105448"><ele>533.07</ele><time>2026-02-28T19:05:57.000Z</time></trkpt>
        <trkpt lat="28.8254859" lon="105.3106056"><ele>529.39</ele><time>2026-02-28T19:06:19.000Z</time></trkpt>
        <trkpt lat="28.8254314" lon="105.310548"><ele>528.43</ele><time>2026-02-28T19:06:27.000Z</time></trkpt>
        <trkpt lat="28.825354" lon="105.3104925"><ele>526.43</ele><time>2026-02-28T19:06:47.000Z</time></trkpt>
        <trkpt lat="28.8252836" lon="105.3104131"><ele>522</ele><time>2026-02-28T19:06:59.000Z</time></trkpt>
        <trkpt lat="28.825264" lon="105.3103868"><ele>517.74</ele><time>2026-02-28T19:07:03.000Z</time></trkpt>
        <trkpt lat="28.8252449" lon="105.3104913"><ele>514.9</ele><time>2026-02-28T19:09:37.000Z</time></trkpt>
        <trkpt lat="28.8252519" lon="105.3104825"><ele>511.22</ele><time>2026-02-28T19:09:39.000Z</time></trkpt>
        <trkpt lat="28.8252574" lon="105.3105772"><ele>509.05</ele><time>2026-02-28T19:09:51.000Z</time></trkpt>
        <trkpt lat="28.8252617" lon="105.3106121"><ele>508.09</ele><time>2026-02-28T19:09:55.000Z</time></trkpt>
        <trkpt lat="28.8253231" lon="105.3107046"><ele>506.86</ele><time>2026-02-28T19:12:48.000Z</time></trkpt>
        <trkpt lat="28.8252665" lon="105.3107906"><ele>503.59</ele><time>2026-02-28T19:13:01.000Z</time></trkpt>
        <trkpt lat="28.8251729" lon="105.3108344"><ele>500.36</ele><time>2026-02-28T19:13:11.000Z</time></trkpt>
        <trkpt lat="28.8250655" lon="105.310854"><ele>497.16</ele><time>2026-02-28T19:13:17.000Z</time></trkpt>
        <trkpt lat="28.824952" lon="105.3108536"><ele>496.67</ele><time>2026-02-28T19:13:25.000Z</time></trkpt>
        <trkpt lat="28.8248682" lon="105.3107878"><ele>498.03</ele><time>2026-02-28T19:13:39.000Z</time></trkpt>
        <trkpt lat="28.8247812" lon="105.3107529"><ele>496.38</ele><time>2026-02-28T19:13:49.000Z</time></trkpt>
        <trkpt lat="28.824816" lon="105.3106774"><ele>493.61</ele><time>2026-02-28T19:13:59.000Z</time></trkpt>
        <trkpt lat="28.824837" lon="105.3105723"><ele>490.34</ele><time>2026-02-28T19:14:11.000Z</time></trkpt>
        <trkpt lat="28.8248243" lon="105.3104641"><ele>487.72</ele><time>2026-02-28T19:14:21.000Z</time></trkpt>
        <trkpt lat="28.8248355" lon="105.3103465"><ele>484.65</ele><time>2026-02-28T19:14:31.000Z</time></trkpt>
        <trkpt lat="28.8248645" lon="105.3102375"><ele>480.32</ele><time>2026-02-28T19:14:41.000Z</time></trkpt>
        <trkpt lat="28.8248689" lon="105.3101736"><ele>476.44</ele><time>2026-02-28T19:14:47.000Z</time></trkpt>
        <trkpt lat="28.8248251" lon="105.3100989"><ele>474.26</ele><time>2026-02-28T19:15:03.000Z</time></trkpt>
        <trkpt lat="28.8248669" lon="105.3100405"><ele>471.18</ele><time>2026-02-28T19:15:25.000Z</time></trkpt>
        <trkpt lat="28.8249066" lon="105.3100266"><ele>467.74</ele><time>2026-02-28T19:15:37.000Z</time></trkpt>
        <trkpt lat="28.8249334" lon="105.3099455"><ele>467.93</ele><time>2026-02-28T19:16:29.000Z</time></trkpt>
        <trkpt lat="28.8249966" lon="105.3098666"><ele>468.97</ele><time>2026-02-28T19:16:43.000Z</time></trkpt>
        <trkpt lat="28.8249717" lon="105.3099036"><ele>468.18</ele><time>2026-02-28T19:17:13.000Z</time></trkpt>
        <trkpt lat="28.8248681" lon="105.3100049"><ele>472.32</ele><time>2026-02-28T19:18:21.000Z</time></trkpt>
        <trkpt lat="28.8248076" lon="105.3100367"><ele>472.25</ele><time>2026-02-28T19:18:35.000Z</time></trkpt>
        <trkpt lat="28.8247304" lon="105.3101138"><ele>471.97</ele><time>2026-02-28T19:20:47.000Z</time></trkpt>
        <trkpt lat="28.8247412" lon="105.3101351"><ele>474.77</ele><time>2026-02-28T19:20:51.000Z</time></trkpt>
        <trkpt lat="28.8247965" lon="105.3102037"><ele>475.11</ele><time>2026-02-28T19:21:01.000Z</time></trkpt>
        <trkpt lat="28.8248612" lon="105.3102779"><ele>471.35</ele><time>2026-02-28T19:21:15.000Z</time></trkpt>
        <trkpt lat="28.8248474" lon="105.3103834"><ele>468.47</ele><time>2026-02-28T19:21:31.000Z</time></trkpt>
        <trkpt lat="28.82482" lon="105.3104987"><ele>468.77</ele><time>2026-02-28T19:21:43.000Z</time></trkpt>
        <trkpt lat="28.8248585" lon="105.3105902"><ele>470.42</ele><time>2026-02-28T19:21:57.000Z</time></trkpt>
        <trkpt lat="28.8249425" lon="105.3106327"><ele>475.34</ele><time>2026-02-28T19:22:13.000Z</time></trkpt>
        <trkpt lat="28.8250002" lon="105.3105666"><ele>477.92</ele><time>2026-02-28T19:22:23.000Z</time></trkpt>
        <trkpt lat="28.8250534" lon="105.3104692"><ele>481.53</ele><time>2026-02-28T19:22:33.000Z</time></trkpt>
        <trkpt lat="28.8251113" lon="105.310428"><ele>482.75</ele><time>2026-02-28T19:22:41.000Z</time></trkpt>
        <trkpt lat="28.8251967" lon="105.310451"><ele>481.71</ele><time>2026-02-28T19:22:59.000Z</time></trkpt>
        <trkpt lat="28.8252285" lon="105.3104692"><ele>482.91</ele><time>2026-02-28T19:23:03.000Z</time></trkpt>
        <trkpt lat="28.8253123" lon="105.3104465"><ele>484</ele><time>2026-02-28T19:23:39.000Z</time></trkpt>
        <trkpt lat="28.8254074" lon="105.3104642"><ele>490.72</ele><time>2026-02-28T19:23:59.000Z</time></trkpt>
        <trkpt lat="28.8255016" lon="105.3104905"><ele>494.24</ele><time>2026-02-28T19:24:09.000Z</time></trkpt>
        <trkpt lat="28.8255998" lon="105.3105237"><ele>497.7</ele><time>2026-02-28T19:24:21.000Z</time></trkpt>
        <trkpt lat="28.8256915" lon="105.3105816"><ele>498.55</ele><time>2026-02-28T19:24:35.000Z</time></trkpt>
        <trkpt lat="28.8256971" lon="105.3105148"><ele>500.06</ele><time>2026-02-28T19:24:45.000Z</time></trkpt>
        <trkpt lat="28.8257082" lon="105.3104106"><ele>504.48</ele><time>2026-02-28T19:24:59.000Z</time></trkpt>
        <trkpt lat="28.8257595" lon="105.3104236"><ele>507.25</ele><time>2026-02-28T19:25:13.000Z</time></trkpt>
        <trkpt lat="28.8258024" lon="105.3103561"><ele>509.67</ele><time>2026-02-28T19:25:35.000Z</time></trkpt>
        <trkpt lat="28.8258393" lon="105.3104066"><ele>512.49</ele><time>2026-02-28T19:26:01.000Z</time></trkpt>
        <trkpt lat="28.825877" lon="105.3103575"><ele>519.81</ele><time>2026-02-28T19:26:13.000Z</time></trkpt>
        <trkpt lat="28.8259215" lon="105.310261"><ele>524.6</ele><time>2026-02-28T19:26:27.000Z</time></trkpt>
        <trkpt lat="28.8259707" lon="105.3101619"><ele>528.87</ele><time>2026-02-28T19:26:41.000Z</time></trkpt>
        <trkpt lat="28.8260136" lon="105.3100557"><ele>531.5</ele><time>2026-02-28T19:27:01.000Z</time></trkpt>
        <trkpt lat="28.8260751" lon="105.3099608"><ele>533.24</ele><time>2026-02-28T19:27:43.000Z</time></trkpt>
        <trkpt lat="28.8261029" lon="105.3099337"><ele>540.15</ele><time>2026-02-28T19:27:47.000Z</time></trkpt>
        <trkpt lat="28.8261806" lon="105.309929"><ele>543.88</ele><time>2026-02-28T19:28:01.000Z</time></trkpt>
        <trkpt lat="28.8261645" lon="105.3099326"><ele>544.31</ele><time>2026-02-28T19:28:03.000Z</time></trkpt>
        <trkpt lat="28.8262538" lon="105.3099483"><ele>548.1</ele><time>2026-02-28T19:28:21.000Z</time></trkpt>
        <trkpt lat="28.8262483" lon="105.3100501"><ele>548.91</ele><time>2026-02-28T19:28:27.000Z</time></trkpt>
        <trkpt lat="28.8261564" lon="105.3100533"><ele>548.82</ele><time>2026-02-28T19:28:39.000Z</time></trkpt>
        <trkpt lat="28.8261632" lon="105.3099794"><ele>549.69</ele><time>2026-02-28T19:28:55.000Z</time></trkpt>
        <trkpt lat="28.8261772" lon="105.3100592"><ele>550.31</ele><time>2026-02-28T19:30:01.000Z</time></trkpt>
        <trkpt lat="28.8261435" lon="105.3101603"><ele>557.98</ele><time>2026-02-28T19:30:15.000Z</time></trkpt>
        <trkpt lat="28.8261827" lon="105.3102576"><ele>565.15</ele><time>2026-02-28T19:30:51.000Z</time></trkpt>
        <trkpt lat="28.8262725" lon="105.3102837"><ele>567.22</ele><time>2026-02-28T19:30:59.000Z</time></trkpt>
        <trkpt lat="28.8263426" lon="105.3102936"><ele>567.22</ele><time>2026-02-28T19:31:17.000Z</time></trkpt>
        <trkpt lat="28.8264241" lon="105.3103289"><ele>568.21</ele><time>2026-02-28T19:32:09.000Z</time></trkpt>
        <trkpt lat="28.8265272" lon="105.3103641"><ele>572.64</ele><time>2026-02-28T19:32:29.000Z</time></trkpt>
        <trkpt lat="28.8265874" lon="105.3104422"><ele>575.24</ele><time>2026-02-28T19:32:47.000Z</time></trkpt>
        <trkpt lat="28.8266692" lon="105.3104791"><ele>574.71</ele><time>2026-02-28T19:32:59.000Z</time></trkpt>
        <trkpt lat="28.8267654" lon="105.3104776"><ele>574.34</ele><time>2026-02-28T19:33:09.000Z</time></trkpt>
        <trkpt lat="28.8268688" lon="105.3104788"><ele>574.18</ele><time>2026-02-28T19:33:21.000Z</time></trkpt>
        <trkpt lat="28.8269726" lon="105.3104495"><ele>574.01</ele><time>2026-02-28T19:33:31.000Z</time></trkpt>
        <trkpt lat="28.8270791" lon="105.3104445"><ele>573.27</ele><time>2026-02-28T19:33:45.000Z</time></trkpt>
        <trkpt lat="28.8271828" lon="105.3104484"><ele>575.02</ele><time>2026-02-28T19:33:57.000Z</time></trkpt>
        <trkpt lat="28.8272766" lon="105.3104513"><ele>576.26</ele><time>2026-02-28T19:34:07.000Z</time></trkpt>
        <trkpt lat="28.8273753" lon="105.3104919"><ele>577.15</ele><time>2026-02-28T19:34:31.000Z</time></trkpt>
        <trkpt lat="28.8274277" lon="105.3105939"><ele>577.31</ele><time>2026-02-28T19:34:39.000Z</time></trkpt>
        <trkpt lat="28.8274069" lon="105.3107074"><ele>576.45</ele><time>2026-02-28T19:34:47.000Z</time></trkpt>
        <trkpt lat="28.8273712" lon="105.310839"><ele>574.82</ele><time>2026-02-28T19:34:53.000Z</time></trkpt>
        <trkpt lat="28.8273675" lon="105.3109677"><ele>575.99</ele><time>2026-02-28T19:35:00.000Z</time></trkpt>
        <trkpt lat="28.827417" lon="105.3110707"><ele>576.68</ele><time>2026-02-28T19:35:08.000Z</time></trkpt>
        <trkpt lat="28.827471" lon="105.3111625"><ele>577.6</ele><time>2026-02-28T19:35:16.000Z</time></trkpt>
        <trkpt lat="28.8275312" lon="105.3112594"><ele>579.37</ele><time>2026-02-28T19:35:26.000Z</time></trkpt>
        <trkpt lat="28.8276165" lon="105.3113301"><ele>580.02</ele><time>2026-02-28T19:35:34.000Z</time></trkpt>
        <trkpt lat="28.8276974" lon="105.3113977"><ele>581.87</ele><time>2026-02-28T19:35:42.000Z</time></trkpt>
        <trkpt lat="28.8277914" lon="105.3114524"><ele>582.5</ele><time>2026-02-28T19:35:50.000Z</time></trkpt>
        <trkpt lat="28.8279039" lon="105.3114573"><ele>583.18</ele><time>2026-02-28T19:35:58.000Z</time></trkpt>
        <trkpt lat="28.8280116" lon="105.3114505"><ele>585.03</ele><time>2026-02-28T19:36:06.000Z</time></trkpt>
        <trkpt lat="28.8281133" lon="105.3114531"><ele>586.2</ele><time>2026-02-28T19:36:14.000Z</time></trkpt>
        <trkpt lat="28.8282116" lon="105.3114672"><ele>585.72</ele><time>2026-02-28T19:36:22.000Z</time></trkpt>
        <trkpt lat="28.8283002" lon="105.3115117"><ele>586</ele><time>2026-02-28T19:36:30.000Z</time></trkpt>
        <trkpt lat="28.8283966" lon="105.311555"><ele>585.06</ele><time>2026-02-28T19:36:40.000Z</time></trkpt>
        <trkpt lat="28.8284271" lon="105.3115144"><ele>584.18</ele><time>2026-02-28T19:36:54.000Z</time></trkpt>
        <trkpt lat="28.8284873" lon="105.3115531"><ele>584.47</ele><time>2026-02-28T19:37:58.000Z</time></trkpt>
        <trkpt lat="28.8285838" lon="105.3115322"><ele>584.5</ele><time>2026-02-28T19:38:10.000Z</time></trkpt>
        <trkpt lat="28.8286737" lon="105.3115677"><ele>585.08</ele><time>2026-02-28T19:38:20.000Z</time></trkpt>
        <trkpt lat="28.82875" lon="105.311644"><ele>586.02</ele><time>2026-02-28T19:38:28.000Z</time></trkpt>
        <trkpt lat="28.8288363" lon="105.3117162"><ele>586.94</ele><time>2026-02-28T19:38:38.000Z</time></trkpt>
        <trkpt lat="28.8288953" lon="105.3118039"><ele>588.19</ele><time>2026-02-28T19:38:50.000Z</time></trkpt>
        <trkpt lat="28.8289439" lon="105.3118999"><ele>588.67</ele><time>2026-02-28T19:39:00.000Z</time></trkpt>
        <trkpt lat="28.8289514" lon="105.3120222"><ele>588.28</ele><time>2026-02-28T19:39:10.000Z</time></trkpt>
        <trkpt lat="28.8289455" lon="105.3121442"><ele>588.01</ele><time>2026-02-28T19:39:20.000Z</time></trkpt>
        <trkpt lat="28.8289428" lon="105.3122592"><ele>587.06</ele><time>2026-02-28T19:39:30.000Z</time></trkpt>
        <trkpt lat="28.8289423" lon="105.3123664"><ele>586.83</ele><time>2026-02-28T19:39:42.000Z</time></trkpt>
        <trkpt lat="28.8289701" lon="105.3124629"><ele>586.54</ele><time>2026-02-28T19:39:49.000Z</time></trkpt>
        <trkpt lat="28.828979" lon="105.3124673"><ele>584.3</ele><time>2026-02-28T19:39:51.000Z</time></trkpt>
        <trkpt lat="28.8290141" lon="105.3125385"><ele>583.08</ele><time>2026-02-28T19:40:11.000Z</time></trkpt>
        <trkpt lat="28.8290304" lon="105.3125542"><ele>582.01</ele><time>2026-02-28T19:40:13.000Z</time></trkpt>
        <trkpt lat="28.8290643" lon="105.3126407"><ele>581.06</ele><time>2026-02-28T19:40:25.000Z</time></trkpt>
        <trkpt lat="28.8291199" lon="105.3127381"><ele>580.42</ele><time>2026-02-28T19:40:33.000Z</time></trkpt>
        <trkpt lat="28.8291851" lon="105.3128389"><ele>580.38</ele><time>2026-02-28T19:40:41.000Z</time></trkpt>
        <trkpt lat="28.8292519" lon="105.3129301"><ele>580.38</ele><time>2026-02-28T19:40:49.000Z</time></trkpt>
        <trkpt lat="28.8293311" lon="105.3130062"><ele>580.6</ele><time>2026-02-28T19:40:57.000Z</time></trkpt>
        <trkpt lat="28.8293841" lon="105.3130937"><ele>581.82</ele><time>2026-02-28T19:41:07.000Z</time></trkpt>
        <trkpt lat="28.8294139" lon="105.3132026"><ele>581.85</ele><time>2026-02-28T19:41:17.000Z</time></trkpt>
        <trkpt lat="28.8294626" lon="105.3132727"><ele>580.86</ele><time>2026-02-28T19:41:27.000Z</time></trkpt>
        <trkpt lat="28.8295318" lon="105.3133318"><ele>579.31</ele><time>2026-02-28T19:41:57.000Z</time></trkpt>
        <trkpt lat="28.8295164" lon="105.3134283"><ele>578.28</ele><time>2026-02-28T19:42:07.000Z</time></trkpt>
        <trkpt lat="28.8294639" lon="105.3135364"><ele>577.92</ele><time>2026-02-28T19:42:13.000Z</time></trkpt>
        <trkpt lat="28.8293991" lon="105.3136413"><ele>577.97</ele><time>2026-02-28T19:42:17.000Z</time></trkpt>
        <trkpt lat="28.8293353" lon="105.3137332"><ele>576.41</ele><time>2026-02-28T19:42:21.000Z</time></trkpt>
        <trkpt lat="28.8292779" lon="105.3138286"><ele>575.32</ele><time>2026-02-28T19:42:27.000Z</time></trkpt>
        <trkpt lat="28.8292204" lon="105.3139404"><ele>574.68</ele><time>2026-02-28T19:42:35.000Z</time></trkpt>
        <trkpt lat="28.829133" lon="105.3140069"><ele>574.18</ele><time>2026-02-28T19:42:43.000Z</time></trkpt>
        <trkpt lat="28.8290332" lon="105.3140663"><ele>571.93</ele><time>2026-02-28T19:42:51.000Z</time></trkpt>
        <trkpt lat="28.8289612" lon="105.3141528"><ele>570.91</ele><time>2026-02-28T19:42:59.000Z</time></trkpt>
        <trkpt lat="28.8289617" lon="105.3142736"><ele>569.7</ele><time>2026-02-28T19:43:07.000Z</time></trkpt>
        <trkpt lat="28.8289989" lon="105.3143851"><ele>567.68</ele><time>2026-02-28T19:43:13.000Z</time></trkpt>
        <trkpt lat="28.829041" lon="105.314513"><ele>565.17</ele><time>2026-02-28T19:43:19.000Z</time></trkpt>
        <trkpt lat="28.8290718" lon="105.3146247"><ele>562.44</ele><time>2026-02-28T19:43:23.000Z</time></trkpt>
        <trkpt lat="28.8290806" lon="105.3147447"><ele>561.18</ele><time>2026-02-28T19:43:27.000Z</time></trkpt>
        <trkpt lat="28.8290409" lon="105.3148398"><ele>561.32</ele><time>2026-02-28T19:43:31.000Z</time></trkpt>
        <trkpt lat="28.8290125" lon="105.3149456"><ele>560.62</ele><time>2026-02-28T19:43:35.000Z</time></trkpt>
        <trkpt lat="28.829024" lon="105.3150499"><ele>560.13</ele><time>2026-02-28T19:43:39.000Z</time></trkpt>
        <trkpt lat="28.8290293" lon="105.3151766"><ele>559.63</ele><time>2026-02-28T19:43:43.000Z</time></trkpt>
        <trkpt lat="28.8290231" lon="105.315304"><ele>559.45</ele><time>2026-02-28T19:43:47.000Z</time></trkpt>
        <trkpt lat="28.829002" lon="105.3154206"><ele>559.69</ele><time>2026-02-28T19:43:51.000Z</time></trkpt>
        <trkpt lat="28.8289632" lon="105.315521"><ele>560.55</ele><time>2026-02-28T19:43:55.000Z</time></trkpt>
        <trkpt lat="28.8289144" lon="105.3156452"><ele>561.57</ele><time>2026-02-28T19:44:01.000Z</time></trkpt>
        <trkpt lat="28.8288526" lon="105.3157576"><ele>561.45</ele><time>2026-02-28T19:44:05.000Z</time></trkpt>
        <trkpt lat="28.8287989" lon="105.3158649"><ele>562.75</ele><time>2026-02-28T19:44:09.000Z</time></trkpt>
        <trkpt lat="28.828813" lon="105.3159641"><ele>563.01</ele><time>2026-02-28T19:44:15.000Z</time></trkpt>
        <trkpt lat="28.8288252" lon="105.3160769"><ele>562.2</ele><time>2026-02-28T19:44:23.000Z</time></trkpt>
        <trkpt lat="28.8288527" lon="105.3161941"><ele>562.26</ele><time>2026-02-28T19:44:37.000Z</time></trkpt>
        <trkpt lat="28.8288698" lon="105.3163165"><ele>564.04</ele><time>2026-02-28T19:44:45.000Z</time></trkpt>
        <trkpt lat="28.8288581" lon="105.316436"><ele>564.32</ele><time>2026-02-28T19:44:51.000Z</time></trkpt>
        <trkpt lat="28.8288266" lon="105.3165571"><ele>564.32</ele><time>2026-02-28T19:44:59.000Z</time></trkpt>
        <trkpt lat="28.8288067" lon="105.3166868"><ele>563.65</ele><time>2026-02-28T19:45:07.000Z</time></trkpt>
        <trkpt lat="28.8288075" lon="105.3168054"><ele>562.61</ele><time>2026-02-28T19:45:15.000Z</time></trkpt>
        <trkpt lat="28.8288241" lon="105.3169278"><ele>560.39</ele><time>2026-02-28T19:45:23.000Z</time></trkpt>
        <trkpt lat="28.8288694" lon="105.3170394"><ele>558.49</ele><time>2026-02-28T19:45:31.000Z</time></trkpt>
        <trkpt lat="28.8289325" lon="105.3171499"><ele>557.36</ele><time>2026-02-28T19:45:39.000Z</time></trkpt>
        <trkpt lat="28.8289381" lon="105.3172737"><ele>556.37</ele><time>2026-02-28T19:45:47.000Z</time></trkpt>
        <trkpt lat="28.8289235" lon="105.3174"><ele>555.75</ele><time>2026-02-28T19:45:55.000Z</time></trkpt>
        <trkpt lat="28.8289105" lon="105.3174345"><ele>555.71</ele><time>2026-02-28T19:45:57.000Z</time></trkpt>
        <trkpt lat="28.8289319" lon="105.3175085"><ele>555.99</ele><time>2026-02-28T19:47:43.000Z</time></trkpt>
        <trkpt lat="28.8289509" lon="105.3175753"><ele>555.5</ele><time>2026-02-28T19:47:51.000Z</time></trkpt>
        <trkpt lat="28.8290146" lon="105.317661"><ele>555.8</ele><time>2026-02-28T19:48:11.000Z</time></trkpt>
        <trkpt lat="28.8290693" lon="105.3177615"><ele>557.61</ele><time>2026-02-28T19:48:21.000Z</time></trkpt>
        <trkpt lat="28.8291201" lon="105.3178616"><ele>558.27</ele><time>2026-02-28T19:48:31.000Z</time></trkpt>
        <trkpt lat="28.8291511" lon="105.3179696"><ele>558.18</ele><time>2026-02-28T19:48:43.000Z</time></trkpt>
        <trkpt lat="28.8292015" lon="105.3180649"><ele>557.96</ele><time>2026-02-28T19:48:59.000Z</time></trkpt>
        <trkpt lat="28.8292505" lon="105.3180103"><ele>557.49</ele><time>2026-02-28T19:49:17.000Z</time></trkpt>
        <trkpt lat="28.8293117" lon="105.3180325"><ele>555.09</ele><time>2026-02-28T19:49:35.000Z</time></trkpt>
        <trkpt lat="28.8293574" lon="105.3181317"><ele>552</ele><time>2026-02-28T19:49:53.000Z</time></trkpt>
        <trkpt lat="28.8293481" lon="105.3182702"><ele>547.7</ele><time>2026-02-28T19:49:59.000Z</time></trkpt>
        <trkpt lat="28.8293226" lon="105.3184058"><ele>543.99</ele><time>2026-02-28T19:50:05.000Z</time></trkpt>
        <trkpt lat="28.8292938" lon="105.3185481"><ele>541.28</ele><time>2026-02-28T19:50:11.000Z</time></trkpt>
        <trkpt lat="28.8292672" lon="105.3186996"><ele>538.11</ele><time>2026-02-28T19:50:17.000Z</time></trkpt>
        <trkpt lat="28.8292536" lon="105.3188386"><ele>536.04</ele><time>2026-02-28T19:50:23.000Z</time></trkpt>
        <trkpt lat="28.829231" lon="105.3189554"><ele>535.21</ele><time>2026-02-28T19:50:29.000Z</time></trkpt>
        <trkpt lat="28.8292187" lon="105.3190788"><ele>535.11</ele><time>2026-02-28T19:50:37.000Z</time></trkpt>
        <trkpt lat="28.8292301" lon="105.3191999"><ele>535.49</ele><time>2026-02-28T19:50:47.000Z</time></trkpt>
        <trkpt lat="28.8292347" lon="105.3193158"><ele>535.04</ele><time>2026-02-28T19:50:59.000Z</time></trkpt>
        <trkpt lat="28.8292198" lon="105.3194376"><ele>536.49</ele><time>2026-02-28T19:51:13.000Z</time></trkpt>
        <trkpt lat="28.829206" lon="105.3195479"><ele>535.06</ele><time>2026-02-28T19:51:21.000Z</time></trkpt>
        <trkpt lat="28.8291969" lon="105.3196526"><ele>533.34</ele><time>2026-02-28T19:51:29.000Z</time></trkpt>
        <trkpt lat="28.8292008" lon="105.3197553"><ele>531.27</ele><time>2026-02-28T19:51:37.000Z</time></trkpt>
        <trkpt lat="28.8292093" lon="105.3198635"><ele>529.18</ele><time>2026-02-28T19:51:45.000Z</time></trkpt>
        <trkpt lat="28.8292353" lon="105.3199678"><ele>528.2</ele><time>2026-02-28T19:51:53.000Z</time></trkpt>
        <trkpt lat="28.8292652" lon="105.3200699"><ele>527.7</ele><time>2026-02-28T19:52:01.000Z</time></trkpt>
        <trkpt lat="28.829288" lon="105.3201729"><ele>528.32</ele><time>2026-02-28T19:52:09.000Z</time></trkpt>
        <trkpt lat="28.8293113" lon="105.320227"><ele>530.05</ele><time>2026-02-28T19:52:21.000Z</time></trkpt>
        <trkpt lat="28.8293698" lon="105.3202833"><ele>528.92</ele><time>2026-02-28T19:52:37.000Z</time></trkpt>
        <trkpt lat="28.8293902" lon="105.3203747"><ele>526.87</ele><time>2026-02-28T19:52:47.000Z</time></trkpt>
        <trkpt lat="28.8293958" lon="105.3204917"><ele>525.23</ele><time>2026-02-28T19:53:01.000Z</time></trkpt>
        <trkpt lat="28.8294052" lon="105.320608"><ele>521.78</ele><time>2026-02-28T19:53:11.000Z</time></trkpt>
        <trkpt lat="28.8294241" lon="105.3207199"><ele>517.86</ele><time>2026-02-28T19:53:17.000Z</time></trkpt>
        <trkpt lat="28.829421" lon="105.3208446"><ele>514.27</ele><time>2026-02-28T19:53:25.000Z</time></trkpt>
        <trkpt lat="28.8294305" lon="105.3209591"><ele>512.74</ele><time>2026-02-28T19:53:33.000Z</time></trkpt>
        <trkpt lat="28.8294487" lon="105.3210733"><ele>511.71</ele><time>2026-02-28T19:53:43.000Z</time></trkpt>
        <trkpt lat="28.829435" lon="105.3211778"><ele>511.55</ele><time>2026-02-28T19:53:53.000Z</time></trkpt>
        <trkpt lat="28.8294527" lon="105.321286"><ele>510.16</ele><time>2026-02-28T19:54:11.000Z</time></trkpt>
        <trkpt lat="28.8294644" lon="105.3213942"><ele>512.98</ele><time>2026-02-28T19:54:19.000Z</time></trkpt>
        <trkpt lat="28.8294907" lon="105.3215084"><ele>515.24</ele><time>2026-02-28T19:54:27.000Z</time></trkpt>
        <trkpt lat="28.8295327" lon="105.3216136"><ele>516.33</ele><time>2026-02-28T19:54:37.000Z</time></trkpt>
        <trkpt lat="28.8295722" lon="105.3217203"><ele>516.8</ele><time>2026-02-28T19:54:49.000Z</time></trkpt>
        <trkpt lat="28.829634" lon="105.3218001"><ele>516.73</ele><time>2026-02-28T19:55:07.000Z</time></trkpt>
        <trkpt lat="28.8296862" lon="105.3217496"><ele>514.24</ele><time>2026-02-28T19:55:23.000Z</time></trkpt>
        <trkpt lat="28.8297371" lon="105.3217975"><ele>512.34</ele><time>2026-02-28T19:55:37.000Z</time></trkpt>
        <trkpt lat="28.8297527" lon="105.3218891"><ele>509.37</ele><time>2026-02-28T19:55:49.000Z</time></trkpt>
        <trkpt lat="28.8297426" lon="105.321923"><ele>507.78</ele><time>2026-02-28T19:55:57.000Z</time></trkpt>
        <trkpt lat="28.829768" lon="105.3220044"><ele>505.06</ele><time>2026-02-28T19:56:09.000Z</time></trkpt>
        <trkpt lat="28.829844" lon="105.3220106"><ele>502.41</ele><time>2026-02-28T19:56:15.000Z</time></trkpt>
        <trkpt lat="28.8299259" lon="105.3220594"><ele>501.34</ele><time>2026-02-28T19:56:39.000Z</time></trkpt>
        <trkpt lat="28.8299738" lon="105.3220639"><ele>501.29</ele><time>2026-02-28T19:56:49.000Z</time></trkpt>
        <trkpt lat="28.8300181" lon="105.3221331"><ele>498.74</ele><time>2026-02-28T19:57:33.000Z</time></trkpt>
        <trkpt lat="28.8300935" lon="105.3221925"><ele>491.8</ele><time>2026-02-28T19:57:59.000Z</time></trkpt>
        <trkpt lat="28.8301299" lon="105.3221455"><ele>485.44</ele><time>2026-02-28T19:58:13.000Z</time></trkpt>
        <trkpt lat="28.8301694" lon="105.3222"><ele>480.14</ele><time>2026-02-28T19:58:51.000Z</time></trkpt>
        <trkpt lat="28.830242" lon="105.3222803"><ele>475.48</ele><time>2026-02-28T19:59:03.000Z</time></trkpt>
        <trkpt lat="28.8302945" lon="105.3223829"><ele>470.56</ele><time>2026-02-28T19:59:15.000Z</time></trkpt>
        <trkpt lat="28.8303535" lon="105.3224707"><ele>466.39</ele><time>2026-02-28T19:59:27.000Z</time></trkpt>
        <trkpt lat="28.8304383" lon="105.3225279"><ele>463.25</ele><time>2026-02-28T19:59:41.000Z</time></trkpt>
        <trkpt lat="28.8305283" lon="105.3225749"><ele>459.45</ele><time>2026-02-28T19:59:53.000Z</time></trkpt>
        <trkpt lat="28.8306034" lon="105.3226233"><ele>455.2</ele><time>2026-02-28T20:00:07.000Z</time></trkpt>
        <trkpt lat="28.8306907" lon="105.3226702"><ele>451.27</ele><time>2026-02-28T20:00:39.000Z</time></trkpt>
        <trkpt lat="28.8307628" lon="105.322735"><ele>446.43</ele><time>2026-02-28T20:00:53.000Z</time></trkpt>
        <trkpt lat="28.8307804" lon="105.3227615"><ele>441.54</ele><time>2026-02-28T20:00:57.000Z</time></trkpt>
        <trkpt lat="28.8308271" lon="105.3227028"><ele>438.88</ele><time>2026-02-28T20:01:07.000Z</time></trkpt>
        <trkpt lat="28.8308517" lon="105.3225938"><ele>437.23</ele><time>2026-02-28T20:01:15.000Z</time></trkpt>
        <trkpt lat="28.8308676" lon="105.3224771"><ele>435.75</ele><time>2026-02-28T20:01:23.000Z</time></trkpt>
        <trkpt lat="28.8308717" lon="105.3223629"><ele>433.76</ele><time>2026-02-28T20:01:31.000Z</time></trkpt>
        <trkpt lat="28.8308568" lon="105.3222462"><ele>432.03</ele><time>2026-02-28T20:01:39.000Z</time></trkpt>
        <trkpt lat="28.8308423" lon="105.3221318"><ele>430.3</ele><time>2026-02-28T20:01:47.000Z</time></trkpt>
        <trkpt lat="28.8308258" lon="105.3220172"><ele>428.46</ele><time>2026-02-28T20:01:55.000Z</time></trkpt>
        <trkpt lat="28.8308628" lon="105.3219279"><ele>426.38</ele><time>2026-02-28T20:02:05.000Z</time></trkpt>
        <trkpt lat="28.8308655" lon="105.3218245"><ele>426.59</ele><time>2026-02-28T20:02:13.000Z</time></trkpt>
        <trkpt lat="28.8308753" lon="105.3217063"><ele>427.04</ele><time>2026-02-28T20:02:23.000Z</time></trkpt>
        <trkpt lat="28.8308652" lon="105.3215797"><ele>425.65</ele><time>2026-02-28T20:02:33.000Z</time></trkpt>
        <trkpt lat="28.8308293" lon="105.3214651"><ele>423.86</ele><time>2026-02-28T20:02:41.000Z</time></trkpt>
        <trkpt lat="28.8307912" lon="105.3214137"><ele>423.77</ele><time>2026-02-28T20:02:49.000Z</time></trkpt>
        <trkpt lat="28.8307658" lon="105.3213273"><ele>424.02</ele><time>2026-02-28T20:02:57.000Z</time></trkpt>
        <trkpt lat="28.8307745" lon="105.3212138"><ele>423.75</ele><time>2026-02-28T20:03:05.000Z</time></trkpt>
        <trkpt lat="28.8308155" lon="105.3211064"><ele>423.03</ele><time>2026-02-28T20:03:11.000Z</time></trkpt>
        <trkpt lat="28.8308971" lon="105.3210318"><ele>423.05</ele><time>2026-02-28T20:03:19.000Z</time></trkpt>
        <trkpt lat="28.8309894" lon="105.3209732"><ele>422.43</ele><time>2026-02-28T20:03:27.000Z</time></trkpt>
        <trkpt lat="28.831059" lon="105.3208919"><ele>422.75</ele><time>2026-02-28T20:03:35.000Z</time></trkpt>
        <trkpt lat="28.8311036" lon="105.3207825"><ele>423.11</ele><time>2026-02-28T20:03:43.000Z</time></trkpt>
        <trkpt lat="28.8311516" lon="105.320673"><ele>422.72</ele><time>2026-02-28T20:03:51.000Z</time></trkpt>
        <trkpt lat="28.8311879" lon="105.3205563"><ele>422.37</ele><time>2026-02-28T20:03:59.000Z</time></trkpt>
        <trkpt lat="28.8312148" lon="105.3204386"><ele>421.22</ele><time>2026-02-28T20:04:07.000Z</time></trkpt>
        <trkpt lat="28.8312164" lon="105.3203142"><ele>420.72</ele><time>2026-02-28T20:04:15.000Z</time></trkpt>
        <trkpt lat="28.831195" lon="105.3202006"><ele>419.65</ele><time>2026-02-28T20:04:23.000Z</time></trkpt>
        <trkpt lat="28.8311722" lon="105.3200845"><ele>418.83</ele><time>2026-02-28T20:04:31.000Z</time></trkpt>
        <trkpt lat="28.8311317" lon="105.3199782"><ele>418.02</ele><time>2026-02-28T20:04:39.000Z</time></trkpt>
        <trkpt lat="28.8310362" lon="105.3199226"><ele>416.32</ele><time>2026-02-28T20:04:47.000Z</time></trkpt>
        <trkpt lat="28.8309726" lon="105.3199134"><ele>414.93</ele><time>2026-02-28T20:04:53.000Z</time></trkpt>
        <trkpt lat="28.8308903" lon="105.3198961"><ele>415.14</ele><time>2026-02-28T20:05:01.000Z</time></trkpt>
        <trkpt lat="28.8308115" lon="105.319827"><ele>416.07</ele><time>2026-02-28T20:05:11.000Z</time></trkpt>
        <trkpt lat="28.8307513" lon="105.3197373"><ele>415.1</ele><time>2026-02-28T20:05:19.000Z</time></trkpt>
        <trkpt lat="28.8307268" lon="105.3196299"><ele>414.49</ele><time>2026-02-28T20:05:27.000Z</time></trkpt>
        <trkpt lat="28.8307474" lon="105.3195162"><ele>413.4</ele><time>2026-02-28T20:05:35.000Z</time></trkpt>
        <trkpt lat="28.8308053" lon="105.3194131"><ele>413</ele><time>2026-02-28T20:05:43.000Z</time></trkpt>
        <trkpt lat="28.8308817" lon="105.319329"><ele>412.55</ele><time>2026-02-28T20:05:51.000Z</time></trkpt>
        <trkpt lat="28.8309533" lon="105.3192297"><ele>411.51</ele><time>2026-02-28T20:06:01.000Z</time></trkpt>
        <trkpt lat="28.8309859" lon="105.319121"><ele>409.91</ele><time>2026-02-28T20:06:09.000Z</time></trkpt>
        <trkpt lat="28.8309996" lon="105.3190043"><ele>408.98</ele><time>2026-02-28T20:06:17.000Z</time></trkpt>
        <trkpt lat="28.8309946" lon="105.3188956"><ele>408.84</ele><time>2026-02-28T20:06:25.000Z</time></trkpt>
        <trkpt lat="28.8309807" lon="105.3187872"><ele>407.82</ele><time>2026-02-28T20:06:33.000Z</time></trkpt>
        <trkpt lat="28.8309643" lon="105.3186769"><ele>406.53</ele><time>2026-02-28T20:06:41.000Z</time></trkpt>
        <trkpt lat="28.8309535" lon="105.3185655"><ele>406.86</ele><time>2026-02-28T20:06:49.000Z</time></trkpt>
        <trkpt lat="28.8309514" lon="105.318455"><ele>407.57</ele><time>2026-02-28T20:07:01.000Z</time></trkpt>
        <trkpt lat="28.8309496" lon="105.31834"><ele>410.26</ele><time>2026-02-28T20:07:13.000Z</time></trkpt>
        <trkpt lat="28.830959" lon="105.3182342"><ele>409.31</ele><time>2026-02-28T20:07:25.000Z</time></trkpt>
        <trkpt lat="28.8310106" lon="105.3181427"><ele>410.11</ele><time>2026-02-28T20:07:35.000Z</time></trkpt>
        <trkpt lat="28.8311019" lon="105.3180761"><ele>411.18</ele><time>2026-02-28T20:07:45.000Z</time></trkpt>
        <trkpt lat="28.8311925" lon="105.3180188"><ele>411.05</ele><time>2026-02-28T20:07:53.000Z</time></trkpt>
        <trkpt lat="28.8312727" lon="105.3179583"><ele>410.85</ele><time>2026-02-28T20:08:01.000Z</time></trkpt>
        <trkpt lat="28.8313537" lon="105.3179091"><ele>410.49</ele><time>2026-02-28T20:08:09.000Z</time></trkpt>
        <trkpt lat="28.8314478" lon="105.317915"><ele>410.48</ele><time>2026-02-28T20:08:17.000Z</time></trkpt>
        <trkpt lat="28.8315424" lon="105.3179387"><ele>411.06</ele><time>2026-02-28T20:08:25.000Z</time></trkpt>
        <trkpt lat="28.8316338" lon="105.3179787"><ele>411.44</ele><time>2026-02-28T20:08:33.000Z</time></trkpt>
        <trkpt lat="28.8317315" lon="105.3180462"><ele>411.58</ele><time>2026-02-28T20:08:43.000Z</time></trkpt>
        <trkpt lat="28.8317913" lon="105.3181427"><ele>412.49</ele><time>2026-02-28T20:08:51.000Z</time></trkpt>
        <trkpt lat="28.8318445" lon="105.3182424"><ele>414.59</ele><time>2026-02-28T20:09:01.000Z</time></trkpt>
        <trkpt lat="28.8318797" lon="105.3182774"><ele>415.46</ele><time>2026-02-28T20:09:07.000Z</time></trkpt>
        <trkpt lat="28.8319651" lon="105.3182808"><ele>416.4</ele><time>2026-02-28T20:09:49.000Z</time></trkpt>
        <trkpt lat="28.8320696" lon="105.3182509"><ele>417.02</ele><time>2026-02-28T20:09:59.000Z</time></trkpt>
        <trkpt lat="28.8321695" lon="105.3182192"><ele>417.93</ele><time>2026-02-28T20:10:07.000Z</time></trkpt>
        <trkpt lat="28.8322758" lon="105.318181"><ele>417.37</ele><time>2026-02-28T20:10:17.000Z</time></trkpt>
        <trkpt lat="28.8323796" lon="105.3181363"><ele>417.36</ele><time>2026-02-28T20:10:27.000Z</time></trkpt>
        <trkpt lat="28.8324843" lon="105.3180875"><ele>416.8</ele><time>2026-02-28T20:10:37.000Z</time></trkpt>
        <trkpt lat="28.8325118" lon="105.3180559"><ele>416.98</ele><time>2026-02-28T20:10:39.000Z</time></trkpt>
        <trkpt lat="28.8325899" lon="105.3180315"><ele>416.68</ele><time>2026-02-28T20:10:51.000Z</time></trkpt>
        <trkpt lat="28.8326796" lon="105.3179759"><ele>415.98</ele><time>2026-02-28T20:10:59.000Z</time></trkpt>
        <trkpt lat="28.8327484" lon="105.3178909"><ele>416.71</ele><time>2026-02-28T20:11:09.000Z</time></trkpt>
        <trkpt lat="28.8328063" lon="105.31779"><ele>415.91</ele><time>2026-02-28T20:11:19.000Z</time></trkpt>
        <trkpt lat="28.8328596" lon="105.3176945"><ele>415.17</ele><time>2026-02-28T20:11:27.000Z</time></trkpt>
        <trkpt lat="28.8329281" lon="105.3176272"><ele>415.55</ele><time>2026-02-28T20:11:35.000Z</time></trkpt>
        <trkpt lat="28.8330046" lon="105.3175639"><ele>415.39</ele><time>2026-02-28T20:11:43.000Z</time></trkpt>
        <trkpt lat="28.8331008" lon="105.3175485"><ele>415.7</ele><time>2026-02-28T20:11:51.000Z</time></trkpt>
        <trkpt lat="28.8331561" lon="105.3175601"><ele>416</ele><time>2026-02-28T20:11:55.000Z</time></trkpt>
        <trkpt lat="28.833235" lon="105.3175489"><ele>417.84</ele><time>2026-02-28T20:12:17.000Z</time></trkpt>
        <trkpt lat="28.8333267" lon="105.3175486"><ele>420.23</ele><time>2026-02-28T20:12:27.000Z</time></trkpt>
        <trkpt lat="28.8334258" lon="105.3175758"><ele>421.46</ele><time>2026-02-28T20:12:37.000Z</time></trkpt>
        <trkpt lat="28.8335317" lon="105.3175996"><ele>422.2</ele><time>2026-02-28T20:12:47.000Z</time></trkpt>
        <trkpt lat="28.8336402" lon="105.3176303"><ele>422.82</ele><time>2026-02-28T20:12:57.000Z</time></trkpt>
        <trkpt lat="28.8337287" lon="105.3176884"><ele>422.21</ele><time>2026-02-28T20:13:05.000Z</time></trkpt>
        <trkpt lat="28.8338185" lon="105.3177604"><ele>421.99</ele><time>2026-02-28T20:13:13.000Z</time></trkpt>
        <trkpt lat="28.8338888" lon="105.317838"><ele>422.53</ele><time>2026-02-28T20:13:21.000Z</time></trkpt>
        <trkpt lat="28.8339587" lon="105.3179312"><ele>421.88</ele><time>2026-02-28T20:13:31.000Z</time></trkpt>
        <trkpt lat="28.8340432" lon="105.3179712"><ele>421.66</ele><time>2026-02-28T20:13:39.000Z</time></trkpt>
        <trkpt lat="28.8341344" lon="105.3179667"><ele>421.18</ele><time>2026-02-28T20:13:47.000Z</time></trkpt>
        <trkpt lat="28.8342347" lon="105.3179456"><ele>421.18</ele><time>2026-02-28T20:13:55.000Z</time></trkpt>
        <trkpt lat="28.8343281" lon="105.3179031"><ele>421.05</ele><time>2026-02-28T20:14:03.000Z</time></trkpt>
        <trkpt lat="28.8344091" lon="105.3178391"><ele>421.34</ele><time>2026-02-28T20:14:11.000Z</time></trkpt>
        <trkpt lat="28.8344826" lon="105.3177552"><ele>420.93</ele><time>2026-02-28T20:14:19.000Z</time></trkpt>
        <trkpt lat="28.8345518" lon="105.3176803"><ele>420.09</ele><time>2026-02-28T20:14:27.000Z</time></trkpt>
        <trkpt lat="28.8346291" lon="105.3176205"><ele>419.59</ele><time>2026-02-28T20:14:37.000Z</time></trkpt>
        <trkpt lat="28.8347214" lon="105.317597"><ele>419.53</ele><time>2026-02-28T20:14:47.000Z</time></trkpt>
        <trkpt lat="28.8348192" lon="105.3175939"><ele>419.68</ele><time>2026-02-28T20:14:55.000Z</time></trkpt>
        <trkpt lat="28.8349147" lon="105.3175746"><ele>419.77</ele><time>2026-02-28T20:15:05.000Z</time></trkpt>
        <trkpt lat="28.8349855" lon="105.3175019"><ele>420.09</ele><time>2026-02-28T20:15:15.000Z</time></trkpt>
        <trkpt lat="28.8350186" lon="105.3174386"><ele>420.37</ele><time>2026-02-28T20:15:23.000Z</time></trkpt>
        <trkpt lat="28.8350607" lon="105.3173572"><ele>420.33</ele><time>2026-02-28T20:15:35.000Z</time></trkpt>
        <trkpt lat="28.8351205" lon="105.3172799"><ele>419.2</ele><time>2026-02-28T20:15:43.000Z</time></trkpt>
        <trkpt lat="28.8352006" lon="105.3172298"><ele>418.04</ele><time>2026-02-28T20:15:51.000Z</time></trkpt>
        <trkpt lat="28.8352948" lon="105.3171859"><ele>417.1</ele><time>2026-02-28T20:16:01.000Z</time></trkpt>
        <trkpt lat="28.8353577" lon="105.3171118"><ele>417.04</ele><time>2026-02-28T20:16:09.000Z</time></trkpt>
        <trkpt lat="28.8354307" lon="105.3170496"><ele>417.25</ele><time>2026-02-28T20:16:17.000Z</time></trkpt>
        <trkpt lat="28.8355204" lon="105.3170281"><ele>418.07</ele><time>2026-02-28T20:16:27.000Z</time></trkpt>
        <trkpt lat="28.8356172" lon="105.3170282"><ele>418.25</ele><time>2026-02-28T20:16:37.000Z</time></trkpt>
        <trkpt lat="28.8357197" lon="105.3170294"><ele>418.62</ele><time>2026-02-28T20:16:47.000Z</time></trkpt>
        <trkpt lat="28.8358142" lon="105.3170443"><ele>418.49</ele><time>2026-02-28T20:16:55.000Z</time></trkpt>
        <trkpt lat="28.8359166" lon="105.3170425"><ele>418.25</ele><time>2026-02-28T20:17:05.000Z</time></trkpt>
        <trkpt lat="28.836014" lon="105.3170325"><ele>417.56</ele><time>2026-02-28T20:17:13.000Z</time></trkpt>
        <trkpt lat="28.836106" lon="105.3170097"><ele>417.96</ele><time>2026-02-28T20:17:21.000Z</time></trkpt>
        <trkpt lat="28.8361868" lon="105.3169517"><ele>418.71</ele><time>2026-02-28T20:17:31.000Z</time></trkpt>
        <trkpt lat="28.8362199" lon="105.3168623"><ele>419.72</ele><time>2026-02-28T20:17:43.000Z</time></trkpt>
        <trkpt lat="28.8362301" lon="105.3167413"><ele>419.29</ele><time>2026-02-28T20:17:53.000Z</time></trkpt>
        <trkpt lat="28.8362462" lon="105.3166179"><ele>418.85</ele><time>2026-02-28T20:18:03.000Z</time></trkpt>
        <trkpt lat="28.8362953" lon="105.3165242"><ele>418.39</ele><time>2026-02-28T20:18:13.000Z</time></trkpt>
        <trkpt lat="28.8363399" lon="105.3164237"><ele>418.64</ele><time>2026-02-28T20:18:25.000Z</time></trkpt>
        <trkpt lat="28.8363824" lon="105.3163283"><ele>416.43</ele><time>2026-02-28T20:18:37.000Z</time></trkpt>
        <trkpt lat="28.8364288" lon="105.3162246"><ele>415.75</ele><time>2026-02-28T20:18:51.000Z</time></trkpt>
        <trkpt lat="28.8364506" lon="105.3161088"><ele>415.52</ele><time>2026-02-28T20:19:03.000Z</time></trkpt>
        <trkpt lat="28.8364637" lon="105.3160584"><ele>415.98</ele><time>2026-02-28T20:19:05.000Z</time></trkpt>
        <trkpt lat="28.836456" lon="105.3159718"><ele>417.45</ele><time>2026-02-28T20:19:27.000Z</time></trkpt>
        <trkpt lat="28.83643" lon="105.3158758"><ele>416.81</ele><time>2026-02-28T20:19:39.000Z</time></trkpt>
        <trkpt lat="28.8364454" lon="105.3157658"><ele>417.4</ele><time>2026-02-28T20:19:51.000Z</time></trkpt>
        <trkpt lat="28.836484" lon="105.3156549"><ele>417.39</ele><time>2026-02-28T20:20:03.000Z</time></trkpt>
        <trkpt lat="28.8365432" lon="105.3155587"><ele>416.58</ele><time>2026-02-28T20:20:15.000Z</time></trkpt>
        <trkpt lat="28.8365705" lon="105.3154525"><ele>416.08</ele><time>2026-02-28T20:20:25.000Z</time></trkpt>
        <trkpt lat="28.8365436" lon="105.3153492"><ele>417.06</ele><time>2026-02-28T20:20:35.000Z</time></trkpt>
        <trkpt lat="28.8365344" lon="105.3152425"><ele>417.96</ele><time>2026-02-28T20:20:49.000Z</time></trkpt>
        <trkpt lat="28.8365692" lon="105.315133"><ele>418.51</ele><time>2026-02-28T20:21:05.000Z</time></trkpt>
        <trkpt lat="28.8366391" lon="105.3150614"><ele>420.06</ele><time>2026-02-28T20:21:15.000Z</time></trkpt>
        <trkpt lat="28.8366868" lon="105.3149752"><ele>420.48</ele><time>2026-02-28T20:21:25.000Z</time></trkpt>
        <trkpt lat="28.8367332" lon="105.3148679"><ele>421.18</ele><time>2026-02-28T20:21:35.000Z</time></trkpt>
        <trkpt lat="28.8367575" lon="105.3147922"><ele>420.76</ele><time>2026-02-28T20:21:41.000Z</time></trkpt>
        <trkpt lat="28.8368014" lon="105.3147003"><ele>420.94</ele><time>2026-02-28T20:22:01.000Z</time></trkpt>
        <trkpt lat="28.8368408" lon="105.314605"><ele>422.43</ele><time>2026-02-28T20:22:11.000Z</time></trkpt>
        <trkpt lat="28.8368464" lon="105.3144999"><ele>423.56</ele><time>2026-02-28T20:22:21.000Z</time></trkpt>
        <trkpt lat="28.8368159" lon="105.3143886"><ele>423.72</ele><time>2026-02-28T20:22:31.000Z</time></trkpt>
        <trkpt lat="28.8367774" lon="105.3142764"><ele>423.47</ele><time>2026-02-28T20:22:41.000Z</time></trkpt>
        <trkpt lat="28.8367336" lon="105.3141617"><ele>423.98</ele><time>2026-02-28T20:22:51.000Z</time></trkpt>
        <trkpt lat="28.8367168" lon="105.3140521"><ele>423.56</ele><time>2026-02-28T20:22:59.000Z</time></trkpt>
        <trkpt lat="28.8367337" lon="105.3139344"><ele>423.06</ele><time>2026-02-28T20:23:09.000Z</time></trkpt>
        <trkpt lat="28.836735" lon="105.3138151"><ele>422.98</ele><time>2026-02-28T20:23:17.000Z</time></trkpt>
        <trkpt lat="28.8367205" lon="105.3136923"><ele>423.18</ele><time>2026-02-28T20:23:27.000Z</time></trkpt>
        <trkpt lat="28.8367131" lon="105.3135801"><ele>423.19</ele><time>2026-02-28T20:23:35.000Z</time></trkpt>
        <trkpt lat="28.836688" lon="105.3134695"><ele>423.74</ele><time>2026-02-28T20:23:45.000Z</time></trkpt>
        <trkpt lat="28.8366003" lon="105.313455"><ele>423.74</ele><time>2026-02-28T20:24:05.000Z</time></trkpt>
        <trkpt lat="28.8364986" lon="105.3134929"><ele>423.28</ele><time>2026-02-28T20:24:17.000Z</time></trkpt>
        <trkpt lat="28.8364485" lon="105.313594"><ele>424.22</ele><time>2026-02-28T20:24:27.000Z</time></trkpt>
        <trkpt lat="28.8364448" lon="105.3136693"><ele>425.6</ele><time>2026-02-28T20:24:33.000Z</time></trkpt>
        <trkpt lat="28.836454" lon="105.3137766"><ele>427.37</ele><time>2026-02-28T20:24:45.000Z</time></trkpt>
        <trkpt lat="28.8364166" lon="105.3138674"><ele>428.16</ele><time>2026-02-28T20:24:57.000Z</time></trkpt>
        <trkpt lat="28.8363689" lon="105.3139574"><ele>429.44</ele><time>2026-02-28T20:25:07.000Z</time></trkpt>
        <trkpt lat="28.8363869" lon="105.3140606"><ele>431.33</ele><time>2026-02-28T20:25:15.000Z</time></trkpt>
        <trkpt lat="28.8363298" lon="105.3140921"><ele>433.35</ele><time>2026-02-28T20:25:29.000Z</time></trkpt>
        <trkpt lat="28.8362707" lon="105.3141594"><ele>434.34</ele><time>2026-02-28T20:25:39.000Z</time></trkpt>
        <trkpt lat="28.8361764" lon="105.3141701"><ele>435.94</ele><time>2026-02-28T20:25:55.000Z</time></trkpt>
        <trkpt lat="28.8360712" lon="105.3141473"><ele>437.84</ele><time>2026-02-28T20:26:09.000Z</time></trkpt>
        <trkpt lat="28.8360026" lon="105.3142012"><ele>440.08</ele><time>2026-02-28T20:26:23.000Z</time></trkpt>
        <trkpt lat="28.8359335" lon="105.3142839"><ele>441.31</ele><time>2026-02-28T20:26:41.000Z</time></trkpt>
        <trkpt lat="28.8359003" lon="105.3143893"><ele>445.21</ele><time>2026-02-28T20:26:53.000Z</time></trkpt>
        <trkpt lat="28.8358428" lon="105.3144803"><ele>448.97</ele><time>2026-02-28T20:27:11.000Z</time></trkpt>
        <trkpt lat="28.835764" lon="105.3144767"><ele>451.6</ele><time>2026-02-28T20:27:59.000Z</time></trkpt>
        <trkpt lat="28.8356734" lon="105.3144638"><ele>456.38</ele><time>2026-02-28T20:28:11.000Z</time></trkpt>
        <trkpt lat="28.8356536" lon="105.3144484"><ele>459.65</ele><time>2026-02-28T20:28:15.000Z</time></trkpt>
        <trkpt lat="28.8357714" lon="105.3144313"><ele>462.01</ele><time>2026-02-28T20:29:57.000Z</time></trkpt>
        <trkpt lat="28.8358666" lon="105.31449"><ele>464.41</ele><time>2026-02-28T20:30:05.000Z</time></trkpt>
        <trkpt lat="28.8358849" lon="105.3145942"><ele>465.6</ele><time>2026-02-28T20:30:13.000Z</time></trkpt>
        <trkpt lat="28.8358787" lon="105.3147024"><ele>466.28</ele><time>2026-02-28T20:30:21.000Z</time></trkpt>
        <trkpt lat="28.8358818" lon="105.3147583"><ele>466.56</ele><time>2026-02-28T20:30:27.000Z</time></trkpt>
        <trkpt lat="28.8358137" lon="105.3147911"><ele>466.56</ele><time>2026-02-28T20:30:41.000Z</time></trkpt>
        <trkpt lat="28.8357219" lon="105.3148253"><ele>468.05</ele><time>2026-02-28T20:30:53.000Z</time></trkpt>
        <trkpt lat="28.8356533" lon="105.3149079"><ele>467.92</ele><time>2026-02-28T20:31:07.000Z</time></trkpt>
        <trkpt lat="28.8355956" lon="105.3149977"><ele>466.48</ele><time>2026-02-28T20:31:17.000Z</time></trkpt>
        <trkpt lat="28.8355728" lon="105.31511"><ele>466.11</ele><time>2026-02-28T20:31:27.000Z</time></trkpt>
        <trkpt lat="28.8355804" lon="105.3152194"><ele>467.1</ele><time>2026-02-28T20:31:35.000Z</time></trkpt>
        <trkpt lat="28.8355284" lon="105.3153117"><ele>468.1</ele><time>2026-02-28T20:31:47.000Z</time></trkpt>
        <trkpt lat="28.8354537" lon="105.3153833"><ele>468.17</ele><time>2026-02-28T20:31:59.000Z</time></trkpt>
        <trkpt lat="28.8353579" lon="105.3153971"><ele>467.86</ele><time>2026-02-28T20:32:19.000Z</time></trkpt>
        <trkpt lat="28.8352633" lon="105.3153683"><ele>470.65</ele><time>2026-02-28T20:32:35.000Z</time></trkpt>
        <trkpt lat="28.835249" lon="105.3154298"><ele>470.68</ele><time>2026-02-28T20:32:57.000Z</time></trkpt>
        <trkpt lat="28.8352575" lon="105.315433"><ele>472.22</ele><time>2026-02-28T20:33:11.000Z</time></trkpt>
        <trkpt lat="28.8352093" lon="105.3153695"><ele>474.06</ele><time>2026-02-28T20:33:23.000Z</time></trkpt>
        <trkpt lat="28.8351171" lon="105.3153331"><ele>476.7</ele><time>2026-02-28T20:33:39.000Z</time></trkpt>
        <trkpt lat="28.8350117" lon="105.3152772"><ele>480.9</ele><time>2026-02-28T20:34:37.000Z</time></trkpt>
        <trkpt lat="28.8349951" lon="105.3152671"><ele>483.99</ele><time>2026-02-28T20:34:41.000Z</time></trkpt>
        <trkpt lat="28.8349347" lon="105.315192"><ele>487.22</ele><time>2026-02-28T20:36:41.000Z</time></trkpt>
        <trkpt lat="28.8349538" lon="105.3150804"><ele>497.18</ele><time>2026-02-28T20:37:29.000Z</time></trkpt>
        <trkpt lat="28.8349138" lon="105.3149905"><ele>506.65</ele><time>2026-02-28T20:38:13.000Z</time></trkpt>
        <trkpt lat="28.8348633" lon="105.3150998"><ele>513.74</ele><time>2026-02-28T20:39:47.000Z</time></trkpt>
        <trkpt lat="28.8347741" lon="105.3151429"><ele>524.39</ele><time>2026-02-28T20:40:25.000Z</time></trkpt>
        <trkpt lat="28.8346756" lon="105.3151314"><ele>529.71</ele><time>2026-02-28T20:41:19.000Z</time></trkpt>
        <trkpt lat="28.8346318" lon="105.3151212"><ele>532.55</ele><time>2026-02-28T20:41:23.000Z</time></trkpt>
        <trkpt lat="28.8346918" lon="105.3150885"><ele>534.82</ele><time>2026-02-28T20:41:37.000Z</time></trkpt>
        <trkpt lat="28.8347294" lon="105.315086"><ele>537.29</ele><time>2026-02-28T20:41:39.000Z</time></trkpt>
        <trkpt lat="28.8346581" lon="105.3150815"><ele>539.07</ele><time>2026-02-28T20:42:01.000Z</time></trkpt>
        <trkpt lat="28.8346356" lon="105.3150895"><ele>542.7</ele><time>2026-02-28T20:42:11.000Z</time></trkpt>
        <trkpt lat="28.8346385" lon="105.3150037"><ele>547.3</ele><time>2026-02-28T20:42:33.000Z</time></trkpt>
        <trkpt lat="28.8345939" lon="105.314908"><ele>549.3</ele><time>2026-02-28T20:42:47.000Z</time></trkpt>
        <trkpt lat="28.8345205" lon="105.3148392"><ele>552.77</ele><time>2026-02-28T20:43:03.000Z</time></trkpt>
        <trkpt lat="28.8344312" lon="105.3147791"><ele>555.6</ele><time>2026-02-28T20:48:30.000Z</time></trkpt>
        <trkpt lat="28.8343395" lon="105.3147339"><ele>557.4</ele><time>2026-02-28T20:48:42.000Z</time></trkpt>
        <trkpt lat="28.8342404" lon="105.3147503"><ele>560.24</ele><time>2026-02-28T20:48:54.000Z</time></trkpt>
        <trkpt lat="28.8341309" lon="105.3147616"><ele>562.84</ele><time>2026-02-28T20:49:04.000Z</time></trkpt>
        <trkpt lat="28.8340376" lon="105.3147207"><ele>564.61</ele><time>2026-02-28T20:49:12.000Z</time></trkpt>
        <trkpt lat="28.8339683" lon="105.3146488"><ele>564.27</ele><time>2026-02-28T20:49:18.000Z</time></trkpt>
        <trkpt lat="28.8339062" lon="105.3145666"><ele>565.73</ele><time>2026-02-28T20:49:26.000Z</time></trkpt>
        <trkpt lat="28.8338433" lon="105.3144843"><ele>566.77</ele><time>2026-02-28T20:49:34.000Z</time></trkpt>
        <trkpt lat="28.8338465" lon="105.314477"><ele>567.62</ele><time>2026-02-28T20:49:36.000Z</time></trkpt>
        <trkpt lat="28.8337811" lon="105.3144532"><ele>567.96</ele><time>2026-02-28T20:49:50.000Z</time></trkpt>
        <trkpt lat="28.8336927" lon="105.3144419"><ele>567.93</ele><time>2026-02-28T20:49:58.000Z</time></trkpt>
        <trkpt lat="28.8335949" lon="105.314428"><ele>568.42</ele><time>2026-02-28T20:50:06.000Z</time></trkpt>
        <trkpt lat="28.8334881" lon="105.3144164"><ele>568.61</ele><time>2026-02-28T20:50:14.000Z</time></trkpt>
        <trkpt lat="28.8333792" lon="105.3144246"><ele>568.59</ele><time>2026-02-28T20:50:24.000Z</time></trkpt>
        <trkpt lat="28.8332693" lon="105.3144149"><ele>567.47</ele><time>2026-02-28T20:50:34.000Z</time></trkpt>
        <trkpt lat="28.8331723" lon="105.3144124"><ele>566.27</ele><time>2026-02-28T20:50:42.000Z</time></trkpt>
        <trkpt lat="28.8330755" lon="105.3144214"><ele>565.62</ele><time>2026-02-28T20:50:50.000Z</time></trkpt>
        <trkpt lat="28.8329769" lon="105.3144353"><ele>567</ele><time>2026-02-28T20:50:56.000Z</time></trkpt>
        <trkpt lat="28.8328916" lon="105.3143766"><ele>567.24</ele><time>2026-02-28T20:51:04.000Z</time></trkpt>
        <trkpt lat="28.8327983" lon="105.3143113"><ele>567.09</ele><time>2026-02-28T20:51:12.000Z</time></trkpt>
        <trkpt lat="28.8327189" lon="105.3142232"><ele>567.49</ele><time>2026-02-28T20:51:20.000Z</time></trkpt>
        <trkpt lat="28.8326305" lon="105.3141468"><ele>567.09</ele><time>2026-02-28T20:51:30.000Z</time></trkpt>
        <trkpt lat="28.832629" lon="105.314048"><ele>565.57</ele><time>2026-02-28T20:51:40.000Z</time></trkpt>
        <trkpt lat="28.8326875" lon="105.313995"><ele>564.55</ele><time>2026-02-28T20:51:50.000Z</time></trkpt>
        <trkpt lat="28.8327302" lon="105.3139092"><ele>561.49</ele><time>2026-02-28T20:52:02.000Z</time></trkpt>
        <trkpt lat="28.8327445" lon="105.3138052"><ele>559.87</ele><time>2026-02-28T20:52:12.000Z</time></trkpt>
        <trkpt lat="28.8326834" lon="105.3137398"><ele>560.2</ele><time>2026-02-28T20:52:22.000Z</time></trkpt>
        <trkpt lat="28.8326873" lon="105.3136501"><ele>558.62</ele><time>2026-02-28T20:52:36.000Z</time></trkpt>
        <trkpt lat="28.8326899" lon="105.3136359"><ele>556.09</ele><time>2026-02-28T20:52:38.000Z</time></trkpt>
        <trkpt lat="28.8327631" lon="105.3136734"><ele>553.84</ele><time>2026-02-28T20:52:50.000Z</time></trkpt>
        <trkpt lat="28.8328579" lon="105.313686"><ele>551.41</ele><time>2026-02-28T20:53:02.000Z</time></trkpt>
        <trkpt lat="28.8329561" lon="105.3137197"><ele>548.13</ele><time>2026-02-28T20:53:16.000Z</time></trkpt>
        <trkpt lat="28.8330577" lon="105.3137369"><ele>543.21</ele><time>2026-02-28T20:53:24.000Z</time></trkpt>
        <trkpt lat="28.8331557" lon="105.3137433"><ele>540.6</ele><time>2026-02-28T20:53:42.000Z</time></trkpt>
        <trkpt lat="28.8332168" lon="105.3137413"><ele>538.66</ele><time>2026-02-28T20:53:48.000Z</time></trkpt>
        <trkpt lat="28.8332924" lon="105.313712"><ele>537.62</ele><time>2026-02-28T20:54:04.000Z</time></trkpt>
        <trkpt lat="28.8333691" lon="105.313654"><ele>537.3</ele><time>2026-02-28T20:54:36.000Z</time></trkpt>
        <trkpt lat="28.8334338" lon="105.3135598"><ele>534.66</ele><time>2026-02-28T20:54:58.000Z</time></trkpt>
        <trkpt lat="28.8335002" lon="105.3135825"><ele>532.9</ele><time>2026-02-28T20:55:08.000Z</time></trkpt>
        <trkpt lat="28.8335011" lon="105.3135945"><ele>530.68</ele><time>2026-02-28T20:55:10.000Z</time></trkpt>
        <trkpt lat="28.8335652" lon="105.3136261"><ele>528.11</ele><time>2026-02-28T20:55:58.000Z</time></trkpt>
        <trkpt lat="28.8336051" lon="105.313698"><ele>525.04</ele><time>2026-02-28T20:56:08.000Z</time></trkpt>
        <trkpt lat="28.8336442" lon="105.3136501"><ele>522.04</ele><time>2026-02-28T20:56:38.000Z</time></trkpt>
        <trkpt lat="28.8335389" lon="105.3136807"><ele>519.97</ele><time>2026-02-28T20:58:00.000Z</time></trkpt>
        <trkpt lat="28.833523" lon="105.3136545"><ele>516.76</ele><time>2026-02-28T20:58:04.000Z</time></trkpt>
        <trkpt lat="28.8334529" lon="105.3136064"><ele>515.68</ele><time>2026-02-28T20:58:32.000Z</time></trkpt>
        <trkpt lat="28.8334726" lon="105.3135146"><ele>514.09</ele><time>2026-02-28T20:59:30.000Z</time></trkpt>
        <trkpt lat="28.8334461" lon="105.3134197"><ele>515.32</ele><time>2026-02-28T20:59:50.000Z</time></trkpt>
        <trkpt lat="28.8334965" lon="105.3133388"><ele>517.13</ele><time>2026-02-28T21:00:14.000Z</time></trkpt>
        <trkpt lat="28.8334769" lon="105.313255"><ele>520.75</ele><time>2026-02-28T21:00:42.000Z</time></trkpt>
        <trkpt lat="28.8334844" lon="105.3132291"><ele>524.32</ele><time>2026-02-28T21:00:46.000Z</time></trkpt>
        <trkpt lat="28.83338" lon="105.3132404"><ele>527.32</ele><time>2026-02-28T21:03:16.000Z</time></trkpt>
        <trkpt lat="28.8334452" lon="105.3131589"><ele>538.63</ele><time>2026-02-28T21:03:24.000Z</time></trkpt>
        <trkpt lat="28.8334128" lon="105.3131243"><ele>543.74</ele><time>2026-02-28T21:03:38.000Z</time></trkpt>
        <trkpt lat="28.833404" lon="105.3130374"><ele>547.48</ele><time>2026-02-28T21:04:02.000Z</time></trkpt>
        <trkpt lat="28.8333952" lon="105.312982"><ele>548.9</ele><time>2026-02-28T21:04:12.000Z</time></trkpt>
        <trkpt lat="28.8334625" lon="105.3129409"><ele>550.04</ele><time>2026-02-28T21:05:02.000Z</time></trkpt>
        <trkpt lat="28.8334783" lon="105.3128544"><ele>550.83</ele><time>2026-02-28T21:05:24.000Z</time></trkpt>
        <trkpt lat="28.83352" lon="105.3127618"><ele>550.36</ele><time>2026-02-28T21:05:40.000Z</time></trkpt>
        <trkpt lat="28.833473" lon="105.3126985"><ele>549.98</ele><time>2026-02-28T21:06:06.000Z</time></trkpt>
        <trkpt lat="28.8335168" lon="105.3126574"><ele>551.46</ele><time>2026-02-28T21:06:54.000Z</time></trkpt>
        <trkpt lat="28.833525" lon="105.3125987"><ele>551.55</ele><time>2026-02-28T21:07:04.000Z</time></trkpt>
        <trkpt lat="28.833473" lon="105.3125252"><ele>551.34</ele><time>2026-02-28T21:07:18.000Z</time></trkpt>
        <trkpt lat="28.8333765" lon="105.3124758"><ele>553.48</ele><time>2026-02-28T21:07:34.000Z</time></trkpt>
        <trkpt lat="28.8332949" lon="105.3124114"><ele>555.46</ele><time>2026-02-28T21:08:03.000Z</time></trkpt>
        <trkpt lat="28.8333227" lon="105.3123225"><ele>555.48</ele><time>2026-02-28T21:08:21.000Z</time></trkpt>
        <trkpt lat="28.833336" lon="105.3122162"><ele>555.35</ele><time>2026-02-28T21:08:31.000Z</time></trkpt>
        <trkpt lat="28.8333058" lon="105.3121101"><ele>555.43</ele><time>2026-02-28T21:08:41.000Z</time></trkpt>
        <trkpt lat="28.8333326" lon="105.3120638"><ele>556.07</ele><time>2026-02-28T21:08:51.000Z</time></trkpt>
        <trkpt lat="28.8332894" lon="105.3119975"><ele>554.48</ele><time>2026-02-28T21:09:25.000Z</time></trkpt>
        <trkpt lat="28.8332054" lon="105.3119514"><ele>551.63</ele><time>2026-02-28T21:09:35.000Z</time></trkpt>
        <trkpt lat="28.8332505" lon="105.3119298"><ele>548.2</ele><time>2026-02-28T21:09:43.000Z</time></trkpt>
        <trkpt lat="28.8333327" lon="105.3118889"><ele>545.11</ele><time>2026-02-28T21:09:51.000Z</time></trkpt>
        <trkpt lat="28.8334147" lon="105.3118769"><ele>542.51</ele><time>2026-02-28T21:10:01.000Z</time></trkpt>
        <trkpt lat="28.8334637" lon="105.311798"><ele>539.71</ele><time>2026-02-28T21:10:13.000Z</time></trkpt>
        <trkpt lat="28.8335393" lon="105.3117391"><ele>536.97</ele><time>2026-02-28T21:10:23.000Z</time></trkpt>
        <trkpt lat="28.8335525" lon="105.3117109"><ele>534.2</ele><time>2026-02-28T21:10:25.000Z</time></trkpt>
        <trkpt lat="28.8334966" lon="105.3117553"><ele>532.55</ele><time>2026-02-28T21:11:23.000Z</time></trkpt>
        <trkpt lat="28.8334277" lon="105.3117145"><ele>531.02</ele><time>2026-02-28T21:11:47.000Z</time></trkpt>
        <trkpt lat="28.833466" lon="105.3116713"><ele>533.47</ele><time>2026-02-28T21:11:57.000Z</time></trkpt>
        <trkpt lat="28.833472" lon="105.3116558"><ele>535.97</ele><time>2026-02-28T21:12:01.000Z</time></trkpt>
        <trkpt lat="28.8334621" lon="105.3115774"><ele>536.06</ele><time>2026-02-28T21:12:15.000Z</time></trkpt>
        <trkpt lat="28.8334732" lon="105.3114558"><ele>538.33</ele><time>2026-02-28T21:12:37.000Z</time></trkpt>
        <trkpt lat="28.8334972" lon="105.3113563"><ele>541.87</ele><time>2026-02-28T21:12:47.000Z</time></trkpt>
        <trkpt lat="28.8334938" lon="105.3112449"><ele>544.82</ele><time>2026-02-28T21:13:03.000Z</time></trkpt>
        <trkpt lat="28.8334404" lon="105.3111585"><ele>549.52</ele><time>2026-02-28T21:13:31.000Z</time></trkpt>
        <trkpt lat="28.8333747" lon="105.3110704"><ele>556.02</ele><time>2026-02-28T21:13:49.000Z</time></trkpt>
        <trkpt lat="28.8332943" lon="105.3110021"><ele>560.99</ele><time>2026-02-28T21:13:59.000Z</time></trkpt>
        <trkpt lat="28.8332059" lon="105.3109389"><ele>563.47</ele><time>2026-02-28T21:14:19.000Z</time></trkpt>
        <trkpt lat="28.8331272" lon="105.310867"><ele>565.88</ele><time>2026-02-28T21:14:33.000Z</time></trkpt>
        <trkpt lat="28.83305" lon="105.3107932"><ele>568.1</ele><time>2026-02-28T21:14:51.000Z</time></trkpt>
        <trkpt lat="28.832958" lon="105.3107411"><ele>569.14</ele><time>2026-02-28T21:15:05.000Z</time></trkpt>
        <trkpt lat="28.8328757" lon="105.3106861"><ele>569.88</ele><time>2026-02-28T21:15:13.000Z</time></trkpt>
        <trkpt lat="28.8327873" lon="105.3106319"><ele>570.76</ele><time>2026-02-28T21:15:39.000Z</time></trkpt>
        <trkpt lat="28.8327036" lon="105.3105752"><ele>572.95</ele><time>2026-02-28T21:15:49.000Z</time></trkpt>
        <trkpt lat="28.8326269" lon="105.3105125"><ele>572.6</ele><time>2026-02-28T21:15:59.000Z</time></trkpt>
        <trkpt lat="28.8325485" lon="105.3104585"><ele>574.26</ele><time>2026-02-28T21:16:09.000Z</time></trkpt>
        <trkpt lat="28.8324511" lon="105.3104063"><ele>576.8</ele><time>2026-02-28T21:16:17.000Z</time></trkpt>
        <trkpt lat="28.832351" lon="105.3103679"><ele>577.9</ele><time>2026-02-28T21:16:27.000Z</time></trkpt>
        <trkpt lat="28.8322763" lon="105.3102999"><ele>579.29</ele><time>2026-02-28T21:16:35.000Z</time></trkpt>
        <trkpt lat="28.8322036" lon="105.3102235"><ele>580.46</ele><time>2026-02-28T21:16:43.000Z</time></trkpt>
        <trkpt lat="28.8321221" lon="105.310157"><ele>581.36</ele><time>2026-02-28T21:16:57.000Z</time></trkpt>
        <trkpt lat="28.8320411" lon="105.3101"><ele>582.27</ele><time>2026-02-28T21:17:11.000Z</time></trkpt>
        <trkpt lat="28.8320479" lon="105.3100019"><ele>584.57</ele><time>2026-02-28T21:17:23.000Z</time></trkpt>
        <trkpt lat="28.8320849" lon="105.3098918"><ele>584.3</ele><time>2026-02-28T21:17:33.000Z</time></trkpt>
        <trkpt lat="28.8321564" lon="105.3098008"><ele>585.49</ele><time>2026-02-28T21:17:45.000Z</time></trkpt>
        <trkpt lat="28.8322047" lon="105.3096842"><ele>586.02</ele><time>2026-02-28T21:17:55.000Z</time></trkpt>
        <trkpt lat="28.8322303" lon="105.309573"><ele>586.84</ele><time>2026-02-28T21:18:03.000Z</time></trkpt>
        <trkpt lat="28.8322276" lon="105.3094622"><ele>588.04</ele><time>2026-02-28T21:18:17.000Z</time></trkpt>
        <trkpt lat="28.8322425" lon="105.3093482"><ele>592.75</ele><time>2026-02-28T21:18:27.000Z</time></trkpt>
        <trkpt lat="28.832293" lon="105.3092502"><ele>595.44</ele><time>2026-02-28T21:18:37.000Z</time></trkpt>
        <trkpt lat="28.8323708" lon="105.3091606"><ele>596.01</ele><time>2026-02-28T21:18:47.000Z</time></trkpt>
        <trkpt lat="28.8324492" lon="105.3090703"><ele>594.1</ele><time>2026-02-28T21:18:57.000Z</time></trkpt>
        <trkpt lat="28.8325078" lon="105.3089709"><ele>592.9</ele><time>2026-02-28T21:19:07.000Z</time></trkpt>
        <trkpt lat="28.8325472" lon="105.3088616"><ele>589.59</ele><time>2026-02-28T21:19:17.000Z</time></trkpt>
        <trkpt lat="28.8325541" lon="105.3087552"><ele>587.21</ele><time>2026-02-28T21:19:25.000Z</time></trkpt>
        <trkpt lat="28.8325148" lon="105.3086629"><ele>585.89</ele><time>2026-02-28T21:19:33.000Z</time></trkpt>
        <trkpt lat="28.8324735" lon="105.3085661"><ele>586.85</ele><time>2026-02-28T21:19:45.000Z</time></trkpt>
        <trkpt lat="28.8324479" lon="105.3084545"><ele>588.76</ele><time>2026-02-28T21:19:57.000Z</time></trkpt>
        <trkpt lat="28.8324869" lon="105.3083518"><ele>590.7</ele><time>2026-02-28T21:20:07.000Z</time></trkpt>
        <trkpt lat="28.8325258" lon="105.308252"><ele>589.9</ele><time>2026-02-28T21:20:17.000Z</time></trkpt>
        <trkpt lat="28.8325361" lon="105.308145"><ele>590.3</ele><time>2026-02-28T21:20:25.000Z</time></trkpt>
        <trkpt lat="28.8325341" lon="105.3081336"><ele>592.28</ele><time>2026-02-28T21:20:27.000Z</time></trkpt>
        <trkpt lat="28.8325306" lon="105.3080624"><ele>593.02</ele><time>2026-02-28T21:20:39.000Z</time></trkpt>
        <trkpt lat="28.8324961" lon="105.3079751"><ele>592.26</ele><time>2026-02-28T21:20:47.000Z</time></trkpt>
        <trkpt lat="28.8324182" lon="105.3079012"><ele>590.72</ele><time>2026-02-28T21:20:53.000Z</time></trkpt>
        <trkpt lat="28.8323223" lon="105.307885"><ele>591.1</ele><time>2026-02-28T21:21:01.000Z</time></trkpt>
        <trkpt lat="28.8322188" lon="105.3079071"><ele>591.43</ele><time>2026-02-28T21:21:09.000Z</time></trkpt>
        <trkpt lat="28.8321246" lon="105.3079609"><ele>591.76</ele><time>2026-02-28T21:21:19.000Z</time></trkpt>
        <trkpt lat="28.8320291" lon="105.3079751"><ele>592.41</ele><time>2026-02-28T21:21:27.000Z</time></trkpt>
        <trkpt lat="28.8319402" lon="105.3079463"><ele>592.57</ele><time>2026-02-28T21:21:35.000Z</time></trkpt>
        <trkpt lat="28.8318607" lon="105.3078845"><ele>591.72</ele><time>2026-02-28T21:21:43.000Z</time></trkpt>
        <trkpt lat="28.8317923" lon="105.3077868"><ele>590.72</ele><time>2026-02-28T21:21:53.000Z</time></trkpt>
        <trkpt lat="28.8317816" lon="105.3077588"><ele>589.78</ele><time>2026-02-28T21:21:55.000Z</time></trkpt>
        <trkpt lat="28.8317473" lon="105.3076894"><ele>589.33</ele><time>2026-02-28T21:22:05.000Z</time></trkpt>
        <trkpt lat="28.8316977" lon="105.3075922"><ele>587.45</ele><time>2026-02-28T21:22:17.000Z</time></trkpt>
        <trkpt lat="28.8316705" lon="105.3074793"><ele>585.95</ele><time>2026-02-28T21:22:31.000Z</time></trkpt>
        <trkpt lat="28.8316381" lon="105.3073563"><ele>583.2</ele><time>2026-02-28T21:22:41.000Z</time></trkpt>
        <trkpt lat="28.8315995" lon="105.3072451"><ele>581.2</ele><time>2026-02-28T21:22:51.000Z</time></trkpt>
        <trkpt lat="28.831551" lon="105.3071436"><ele>579.74</ele><time>2026-02-28T21:23:01.000Z</time></trkpt>
        <trkpt lat="28.8314992" lon="105.3070523"><ele>578.24</ele><time>2026-02-28T21:23:11.000Z</time></trkpt>
        <trkpt lat="28.831469" lon="105.3069402"><ele>578.35</ele><time>2026-02-28T21:23:23.000Z</time></trkpt>
        <trkpt lat="28.8314256" lon="105.306834"><ele>577.61</ele><time>2026-02-28T21:23:33.000Z</time></trkpt>
        <trkpt lat="28.8313514" lon="105.3067605"><ele>577.48</ele><time>2026-02-28T21:23:49.000Z</time></trkpt>
        <trkpt lat="28.8313162" lon="105.3066618"><ele>577.29</ele><time>2026-02-28T21:23:57.000Z</time></trkpt>
        <trkpt lat="28.8313344" lon="105.3065434"><ele>575.72</ele><time>2026-02-28T21:24:07.000Z</time></trkpt>
        <trkpt lat="28.8313865" lon="105.3064427"><ele>576.62</ele><time>2026-02-28T21:24:15.000Z</time></trkpt>
        <trkpt lat="28.8313846" lon="105.3063268"><ele>576.32</ele><time>2026-02-28T21:24:27.000Z</time></trkpt>
        <trkpt lat="28.8313492" lon="105.3062256"><ele>574.63</ele><time>2026-02-28T21:24:35.000Z</time></trkpt>
        <trkpt lat="28.8312806" lon="105.3061303"><ele>573.59</ele><time>2026-02-28T21:24:45.000Z</time></trkpt>
        <trkpt lat="28.8312185" lon="105.306031"><ele>570.74</ele><time>2026-02-28T21:24:55.000Z</time></trkpt>
        <trkpt lat="28.8312238" lon="105.3059336"><ele>568.59</ele><time>2026-02-28T21:25:03.000Z</time></trkpt>
        <trkpt lat="28.8312265" lon="105.3058204"><ele>568.73</ele><time>2026-02-28T21:25:13.000Z</time></trkpt>
        <trkpt lat="28.8312264" lon="105.3057095"><ele>569.38</ele><time>2026-02-28T21:25:21.000Z</time></trkpt>
        <trkpt lat="28.8312298" lon="105.3055926"><ele>567.92</ele><time>2026-02-28T21:25:29.000Z</time></trkpt>
        <trkpt lat="28.8312228" lon="105.3054819"><ele>566.55</ele><time>2026-02-28T21:25:37.000Z</time></trkpt>
        <trkpt lat="28.831196" lon="105.3053642"><ele>565.28</ele><time>2026-02-28T21:25:47.000Z</time></trkpt>
        <trkpt lat="28.8311354" lon="105.3052779"><ele>563.86</ele><time>2026-02-28T21:25:55.000Z</time></trkpt>
        <trkpt lat="28.8310681" lon="105.3051934"><ele>562.65</ele><time>2026-02-28T21:26:03.000Z</time></trkpt>
        <trkpt lat="28.8309954" lon="105.3051048"><ele>561.09</ele><time>2026-02-28T21:26:11.000Z</time></trkpt>
        <trkpt lat="28.8309005" lon="105.3050489"><ele>562.49</ele><time>2026-02-28T21:26:19.000Z</time></trkpt>
        <trkpt lat="28.8308027" lon="105.305036"><ele>566.21</ele><time>2026-02-28T21:26:27.000Z</time></trkpt>
        <trkpt lat="28.8307089" lon="105.3049891"><ele>570.41</ele><time>2026-02-28T21:26:35.000Z</time></trkpt>
        <trkpt lat="28.8306686" lon="105.304886"><ele>571.86</ele><time>2026-02-28T21:26:43.000Z</time></trkpt>
        <trkpt lat="28.8306653" lon="105.304776"><ele>571.11</ele><time>2026-02-28T21:26:49.000Z</time></trkpt>
        <trkpt lat="28.8306817" lon="105.3046677"><ele>570.4</ele><time>2026-02-28T21:26:57.000Z</time></trkpt>
        <trkpt lat="28.8306957" lon="105.304555"><ele>569.45</ele><time>2026-02-28T21:27:07.000Z</time></trkpt>
        <trkpt lat="28.8306565" lon="105.3044485"><ele>569.34</ele><time>2026-02-28T21:27:17.000Z</time></trkpt>
        <trkpt lat="28.8305828" lon="105.3043626"><ele>568.19</ele><time>2026-02-28T21:27:27.000Z</time></trkpt>
        <trkpt lat="28.8304951" lon="105.3043106"><ele>567.51</ele><time>2026-02-28T21:27:35.000Z</time></trkpt>
        <trkpt lat="28.8304096" lon="105.304241"><ele>568.21</ele><time>2026-02-28T21:27:45.000Z</time></trkpt>
        <trkpt lat="28.8304038" lon="105.3041324"><ele>568.26</ele><time>2026-02-28T21:27:53.000Z</time></trkpt>
        <trkpt lat="28.8304565" lon="105.3040345"><ele>567.12</ele><time>2026-02-28T21:28:01.000Z</time></trkpt>
        <trkpt lat="28.8305393" lon="105.3039431"><ele>568.12</ele><time>2026-02-28T21:28:09.000Z</time></trkpt>
        <trkpt lat="28.8306189" lon="105.3038514"><ele>569.67</ele><time>2026-02-28T21:28:19.000Z</time></trkpt>
        <trkpt lat="28.8306746" lon="105.3037586"><ele>571.5</ele><time>2026-02-28T21:28:25.000Z</time></trkpt>
        <trkpt lat="28.8307088" lon="105.303646"><ele>572.32</ele><time>2026-02-28T21:28:33.000Z</time></trkpt>
        <trkpt lat="28.8307274" lon="105.3035244"><ele>572.27</ele><time>2026-02-28T21:28:43.000Z</time></trkpt>
        <trkpt lat="28.8307949" lon="105.3034282"><ele>571.92</ele><time>2026-02-28T21:28:53.000Z</time></trkpt>
        <trkpt lat="28.8308633" lon="105.3033506"><ele>572.35</ele><time>2026-02-28T21:29:01.000Z</time></trkpt>
        <trkpt lat="28.8309306" lon="105.3032619"><ele>573.34</ele><time>2026-02-28T21:29:09.000Z</time></trkpt>
        <trkpt lat="28.8310044" lon="105.3031802"><ele>576.26</ele><time>2026-02-28T21:29:19.000Z</time></trkpt>
        <trkpt lat="28.8310956" lon="105.3031521"><ele>578.76</ele><time>2026-02-28T21:29:27.000Z</time></trkpt>
        <trkpt lat="28.8311895" lon="105.3031465"><ele>580.56</ele><time>2026-02-28T21:29:33.000Z</time></trkpt>
        <trkpt lat="28.8312859" lon="105.3031419"><ele>579.46</ele><time>2026-02-28T21:29:39.000Z</time></trkpt>
        <trkpt lat="28.8313874" lon="105.3031202"><ele>579.03</ele><time>2026-02-28T21:29:51.000Z</time></trkpt>
        <trkpt lat="28.83148" lon="105.3030677"><ele>580.15</ele><time>2026-02-28T21:30:01.000Z</time></trkpt>
        <trkpt lat="28.8315652" lon="105.3030006"><ele>581.2</ele><time>2026-02-28T21:30:11.000Z</time></trkpt>
        <trkpt lat="28.8316579" lon="105.3029426"><ele>582.12</ele><time>2026-02-28T21:30:21.000Z</time></trkpt>
        <trkpt lat="28.8317505" lon="105.3029348"><ele>581.76</ele><time>2026-02-28T21:30:29.000Z</time></trkpt>
        <trkpt lat="28.8318551" lon="105.3029386"><ele>581.61</ele><time>2026-02-28T21:30:39.000Z</time></trkpt>
        <trkpt lat="28.8319618" lon="105.3029688"><ele>580.59</ele><time>2026-02-28T21:30:49.000Z</time></trkpt>
        <trkpt lat="28.8320685" lon="105.303001"><ele>579.67</ele><time>2026-02-28T21:30:59.000Z</time></trkpt>
        <trkpt lat="28.8321807" lon="105.3030178"><ele>577.91</ele><time>2026-02-28T21:31:09.000Z</time></trkpt>
        <trkpt lat="28.8322763" lon="105.3030461"><ele>576.39</ele><time>2026-02-28T21:31:17.000Z</time></trkpt>
        <trkpt lat="28.8323659" lon="105.3030188"><ele>574.33</ele><time>2026-02-28T21:31:25.000Z</time></trkpt>
        <trkpt lat="28.83245" lon="105.3029699"><ele>573.08</ele><time>2026-02-28T21:31:33.000Z</time></trkpt>
        <trkpt lat="28.8325468" lon="105.3029679"><ele>571.86</ele><time>2026-02-28T21:31:43.000Z</time></trkpt>
        <trkpt lat="28.8326403" lon="105.30297"><ele>572.82</ele><time>2026-02-28T21:31:51.000Z</time></trkpt>
        <trkpt lat="28.8327366" lon="105.3029642"><ele>574.26</ele><time>2026-02-28T21:31:59.000Z</time></trkpt>
        <trkpt lat="28.8328342" lon="105.3029463"><ele>575.53</ele><time>2026-02-28T21:32:07.000Z</time></trkpt>
        <trkpt lat="28.832926" lon="105.3029104"><ele>576.99</ele><time>2026-02-28T21:32:15.000Z</time></trkpt>
        <trkpt lat="28.8330145" lon="105.3028591"><ele>576.39</ele><time>2026-02-28T21:32:25.000Z</time></trkpt>
        <trkpt lat="28.8330721" lon="105.3027723"><ele>575.08</ele><time>2026-02-28T21:32:33.000Z</time></trkpt>
        <trkpt lat="28.8330692" lon="105.3026548"><ele>572</ele><time>2026-02-28T21:32:41.000Z</time></trkpt>
        <trkpt lat="28.8330209" lon="105.3025342"><ele>568.81</ele><time>2026-02-28T21:32:49.000Z</time></trkpt>
        <trkpt lat="28.8330042" lon="105.3024144"><ele>566.85</ele><time>2026-02-28T21:32:55.000Z</time></trkpt>
        <trkpt lat="28.833056" lon="105.3023427"><ele>564.97</ele><time>2026-02-28T21:33:01.000Z</time></trkpt>
        <trkpt lat="28.8331524" lon="105.3023213"><ele>564.36</ele><time>2026-02-28T21:33:09.000Z</time></trkpt>
        <trkpt lat="28.8332644" lon="105.3023342"><ele>564.05</ele><time>2026-02-28T21:33:17.000Z</time></trkpt>
        <trkpt lat="28.8333556" lon="105.3022888"><ele>562.97</ele><time>2026-02-28T21:33:25.000Z</time></trkpt>
        <trkpt lat="28.8334454" lon="105.3023035"><ele>562.71</ele><time>2026-02-28T21:33:37.000Z</time></trkpt>
        <trkpt lat="28.833475" lon="105.3022303"><ele>561.26</ele><time>2026-02-28T21:34:05.000Z</time></trkpt>
        <trkpt lat="28.833443" lon="105.3021301"><ele>558.21</ele><time>2026-02-28T21:34:15.000Z</time></trkpt>
        <trkpt lat="28.8334948" lon="105.3021093"><ele>555.3</ele><time>2026-02-28T21:34:45.000Z</time></trkpt>
        <trkpt lat="28.8335361" lon="105.302196"><ele>551.67</ele><time>2026-02-28T21:34:55.000Z</time></trkpt>
        <trkpt lat="28.8336185" lon="105.3022611"><ele>546.27</ele><time>2026-02-28T21:35:03.000Z</time></trkpt>
        <trkpt lat="28.8337097" lon="105.302311"><ele>541.33</ele><time>2026-02-28T21:35:11.000Z</time></trkpt>
        <trkpt lat="28.8337231" lon="105.3022485"><ele>538.65</ele><time>2026-02-28T21:35:17.000Z</time></trkpt>
        <trkpt lat="28.8336994" lon="105.3021407"><ele>535.71</ele><time>2026-02-28T21:35:25.000Z</time></trkpt>
        <trkpt lat="28.8337412" lon="105.302146"><ele>532.48</ele><time>2026-02-28T21:35:33.000Z</time></trkpt>
        <trkpt lat="28.8337733" lon="105.3021203"><ele>530.58</ele><time>2026-02-28T21:35:47.000Z</time></trkpt>
        <trkpt lat="28.8338539" lon="105.3021348"><ele>528.16</ele><time>2026-02-28T21:36:05.000Z</time></trkpt>
        <trkpt lat="28.8338452" lon="105.3020744"><ele>524.03</ele><time>2026-02-28T21:36:15.000Z</time></trkpt>
        <trkpt lat="28.8337995" lon="105.301978"><ele>519.84</ele><time>2026-02-28T21:36:27.000Z</time></trkpt>
        <trkpt lat="28.8337403" lon="105.3018746"><ele>516.77</ele><time>2026-02-28T21:36:35.000Z</time></trkpt>
        <trkpt lat="28.8337909" lon="105.3018299"><ele>515.09</ele><time>2026-02-28T21:36:53.000Z</time></trkpt>
        <trkpt lat="28.8338831" lon="105.3018256"><ele>511.38</ele><time>2026-02-28T21:37:03.000Z</time></trkpt>
        <trkpt lat="28.8338603" lon="105.3017778"><ele>509.57</ele><time>2026-02-28T21:37:11.000Z</time></trkpt>
        <trkpt lat="28.8337886" lon="105.3017137"><ele>508.94</ele><time>2026-02-28T21:37:21.000Z</time></trkpt>
        <trkpt lat="28.8337509" lon="105.3016122"><ele>507.94</ele><time>2026-02-28T21:37:33.000Z</time></trkpt>
        <trkpt lat="28.8337097" lon="105.3015076"><ele>502.97</ele><time>2026-02-28T21:37:43.000Z</time></trkpt>
        <trkpt lat="28.8337676" lon="105.3014637"><ele>498.98</ele><time>2026-02-28T21:37:51.000Z</time></trkpt>
        <trkpt lat="28.8338599" lon="105.301496"><ele>496.43</ele><time>2026-02-28T21:38:01.000Z</time></trkpt>
        <trkpt lat="28.8339633" lon="105.3015588"><ele>493.47</ele><time>2026-02-28T21:38:11.000Z</time></trkpt>
        <trkpt lat="28.8339587" lon="105.3015037"><ele>491.46</ele><time>2026-02-28T21:38:33.000Z</time></trkpt>
        <trkpt lat="28.8338956" lon="105.3014244"><ele>489.75</ele><time>2026-02-28T21:38:41.000Z</time></trkpt>
        <trkpt lat="28.8338144" lon="105.3013447"><ele>490.31</ele><time>2026-02-28T21:38:49.000Z</time></trkpt>
        <trkpt lat="28.8337337" lon="105.3012688"><ele>490.42</ele><time>2026-02-28T21:38:57.000Z</time></trkpt>
        <trkpt lat="28.8336514" lon="105.3011858"><ele>490.87</ele><time>2026-02-28T21:39:05.000Z</time></trkpt>
        <trkpt lat="28.8335644" lon="105.3011361"><ele>491.18</ele><time>2026-02-28T21:39:11.000Z</time></trkpt>
        <trkpt lat="28.8334761" lon="105.3010764"><ele>491.07</ele><time>2026-02-28T21:39:23.000Z</time></trkpt>
        <trkpt lat="28.8334044" lon="105.3010077"><ele>490.92</ele><time>2026-02-28T21:39:31.000Z</time></trkpt>
        <trkpt lat="28.8333478" lon="105.3009161"><ele>492.56</ele><time>2026-02-28T21:39:41.000Z</time></trkpt>
        <trkpt lat="28.8332901" lon="105.3009502"><ele>494.51</ele><time>2026-02-28T21:40:25.000Z</time></trkpt>
        <trkpt lat="28.8332021" lon="105.3010193"><ele>496.01</ele><time>2026-02-28T21:41:29.000Z</time></trkpt>
        <trkpt lat="28.8331351" lon="105.3011045"><ele>498.54</ele><time>2026-02-28T21:41:57.000Z</time></trkpt>
        <trkpt lat="28.8330857" lon="105.3010861"><ele>500.44</ele><time>2026-02-28T21:42:09.000Z</time></trkpt>
        <trkpt lat="28.8330167" lon="105.3010327"><ele>502.44</ele><time>2026-02-28T21:42:45.000Z</time></trkpt>
        <trkpt lat="28.8329611" lon="105.3009361"><ele>503.95</ele><time>2026-02-28T21:43:07.000Z</time></trkpt>
        <trkpt lat="28.832905" lon="105.3008316"><ele>503.4</ele><time>2026-02-28T21:43:37.000Z</time></trkpt>
        <trkpt lat="28.8328349" lon="105.3007558"><ele>504.2</ele><time>2026-02-28T21:43:57.000Z</time></trkpt>
        <trkpt lat="28.8328106" lon="105.3008244"><ele>507.05</ele><time>2026-02-28T21:44:11.000Z</time></trkpt>
        <trkpt lat="28.8327889" lon="105.300938"><ele>509.36</ele><time>2026-02-28T21:44:53.000Z</time></trkpt>
        <trkpt lat="28.8327187" lon="105.301"><ele>509.77</ele><time>2026-02-28T21:45:19.000Z</time></trkpt>
        <trkpt lat="28.8326883" lon="105.3008954"><ele>508.25</ele><time>2026-02-28T21:46:51.000Z</time></trkpt>
        <trkpt lat="28.8326816" lon="105.3009112"><ele>510</ele><time>2026-02-28T21:46:55.000Z</time></trkpt>
        <trkpt lat="28.8326357" lon="105.3009901"><ele>510.29</ele><time>2026-02-28T21:47:17.000Z</time></trkpt>
        <trkpt lat="28.8325569" lon="105.3009841"><ele>510.04</ele><time>2026-02-28T21:47:46.000Z</time></trkpt>
        <trkpt lat="28.8324978" lon="105.3009854"><ele>510.26</ele><time>2026-02-28T21:47:56.000Z</time></trkpt>
        <trkpt lat="28.8324561" lon="105.3010699"><ele>510.71</ele><time>2026-02-28T21:48:44.000Z</time></trkpt>
        <trkpt lat="28.8324428" lon="105.3010998"><ele>510.98</ele><time>2026-02-28T21:48:48.000Z</time></trkpt>
        <trkpt lat="28.8324812" lon="105.3010383"><ele>512.22</ele><time>2026-02-28T21:49:02.000Z</time></trkpt>
        <trkpt lat="28.8324745" lon="105.3009407"><ele>513.3</ele><time>2026-02-28T21:49:10.000Z</time></trkpt>
        <trkpt lat="28.8324416" lon="105.3008333"><ele>513.86</ele><time>2026-02-28T21:50:02.000Z</time></trkpt>
        <trkpt lat="28.8324255" lon="105.300718"><ele>511.99</ele><time>2026-02-28T21:50:16.000Z</time></trkpt>
        <trkpt lat="28.8324388" lon="105.3006032"><ele>508.74</ele><time>2026-02-28T21:50:36.000Z</time></trkpt>
        <trkpt lat="28.832398" lon="105.300504"><ele>506.05</ele><time>2026-02-28T21:50:46.000Z</time></trkpt>
        <trkpt lat="28.8323558" lon="105.300553"><ele>503.39</ele><time>2026-02-28T21:50:52.000Z</time></trkpt>
        <trkpt lat="28.832266" lon="105.3006187"><ele>499.41</ele><time>2026-02-28T21:51:02.000Z</time></trkpt>
        <trkpt lat="28.8321664" lon="105.3006678"><ele>494.31</ele><time>2026-02-28T21:51:10.000Z</time></trkpt>
        <trkpt lat="28.832076" lon="105.3007296"><ele>492.29</ele><time>2026-02-28T21:51:18.000Z</time></trkpt>
        <trkpt lat="28.8319822" lon="105.3007746"><ele>489</ele><time>2026-02-28T21:51:26.000Z</time></trkpt>
        <trkpt lat="28.8318756" lon="105.3007991"><ele>488.47</ele><time>2026-02-28T21:51:34.000Z</time></trkpt>
        <trkpt lat="28.8317653" lon="105.300787"><ele>488.05</ele><time>2026-02-28T21:51:42.000Z</time></trkpt>
        <trkpt lat="28.8316854" lon="105.3007172"><ele>488.32</ele><time>2026-02-28T21:51:50.000Z</time></trkpt>
        <trkpt lat="28.831671" lon="105.3005947"><ele>490.58</ele><time>2026-02-28T21:51:58.000Z</time></trkpt>
        <trkpt lat="28.8317094" lon="105.3004708"><ele>492.86</ele><time>2026-02-28T21:52:06.000Z</time></trkpt>
        <trkpt lat="28.8317395" lon="105.3003993"><ele>494.02</ele><time>2026-02-28T21:52:10.000Z</time></trkpt>
        <trkpt lat="28.8317585" lon="105.3002994"><ele>495.34</ele><time>2026-02-28T21:52:22.000Z</time></trkpt>
        <trkpt lat="28.8318025" lon="105.3001962"><ele>494.88</ele><time>2026-02-28T21:52:34.000Z</time></trkpt>
        <trkpt lat="28.8318192" lon="105.3000918"><ele>495.37</ele><time>2026-02-28T21:52:44.000Z</time></trkpt>
        <trkpt lat="28.8317808" lon="105.2999764"><ele>493.26</ele><time>2026-02-28T21:52:52.000Z</time></trkpt>
        <trkpt lat="28.8317739" lon="105.2998589"><ele>494.02</ele><time>2026-02-28T21:53:04.000Z</time></trkpt>
        <trkpt lat="28.8318076" lon="105.2997586"><ele>493.68</ele><time>2026-02-28T21:53:16.000Z</time></trkpt>
        <trkpt lat="28.8318637" lon="105.2996757"><ele>492.82</ele><time>2026-02-28T21:53:26.000Z</time></trkpt>
        <trkpt lat="28.8319163" lon="105.2995891"><ele>492.54</ele><time>2026-02-28T21:53:34.000Z</time></trkpt>
        <trkpt lat="28.8319093" lon="105.2995836"><ele>491.18</ele><time>2026-02-28T21:53:38.000Z</time></trkpt>
        <trkpt lat="28.8318855" lon="105.2995037"><ele>488.52</ele><time>2026-02-28T21:53:52.000Z</time></trkpt>
        <trkpt lat="28.8318796" lon="105.2994028"><ele>487.71</ele><time>2026-02-28T21:53:58.000Z</time></trkpt>
        <trkpt lat="28.8319012" lon="105.2992921"><ele>488.75</ele><time>2026-02-28T21:54:06.000Z</time></trkpt>
        <trkpt lat="28.8319125" lon="105.2991786"><ele>489.61</ele><time>2026-02-28T21:54:14.000Z</time></trkpt>
        <trkpt lat="28.8318772" lon="105.2990611"><ele>490.5</ele><time>2026-02-28T21:54:23.000Z</time></trkpt>
        <trkpt lat="28.8318638" lon="105.2989366"><ele>490.79</ele><time>2026-02-28T21:54:32.000Z</time></trkpt>
        <trkpt lat="28.8318747" lon="105.298828"><ele>492.18</ele><time>2026-02-28T21:54:40.000Z</time></trkpt>
        <trkpt lat="28.8319147" lon="105.2987353"><ele>493.04</ele><time>2026-02-28T21:54:48.000Z</time></trkpt>
        <trkpt lat="28.8319905" lon="105.2986763"><ele>492.76</ele><time>2026-02-28T21:54:56.000Z</time></trkpt>
        <trkpt lat="28.8320618" lon="105.298602"><ele>492.62</ele><time>2026-02-28T21:55:04.000Z</time></trkpt>
        <trkpt lat="28.8321277" lon="105.2985045"><ele>493.93</ele><time>2026-02-28T21:55:14.000Z</time></trkpt>
        <trkpt lat="28.8321673" lon="105.2983902"><ele>494.61</ele><time>2026-02-28T21:55:24.000Z</time></trkpt>
        <trkpt lat="28.8322277" lon="105.2982935"><ele>494.48</ele><time>2026-02-28T21:55:32.000Z</time></trkpt>
        <trkpt lat="28.8322898" lon="105.2982076"><ele>494.4</ele><time>2026-02-28T21:55:40.000Z</time></trkpt>
        <trkpt lat="28.832341" lon="105.2981157"><ele>495.63</ele><time>2026-02-28T21:55:48.000Z</time></trkpt>
        <trkpt lat="28.832403" lon="105.2980263"><ele>495.44</ele><time>2026-02-28T21:55:56.000Z</time></trkpt>
        <trkpt lat="28.8324757" lon="105.2979544"><ele>495.82</ele><time>2026-02-28T21:56:04.000Z</time></trkpt>
        <trkpt lat="28.832532" lon="105.2978586"><ele>496.08</ele><time>2026-02-28T21:56:12.000Z</time></trkpt>
        <trkpt lat="28.8325086" lon="105.2977616"><ele>496.83</ele><time>2026-02-28T21:56:22.000Z</time></trkpt>
        <trkpt lat="28.8324307" lon="105.2976741"><ele>497.91</ele><time>2026-02-28T21:56:32.000Z</time></trkpt>
        <trkpt lat="28.8323783" lon="105.2975709"><ele>497.78</ele><time>2026-02-28T21:56:40.000Z</time></trkpt>
        <trkpt lat="28.8323639" lon="105.2974581"><ele>499.27</ele><time>2026-02-28T21:56:48.000Z</time></trkpt>
        <trkpt lat="28.8323478" lon="105.297352"><ele>500.29</ele><time>2026-02-28T21:56:56.000Z</time></trkpt>
        <trkpt lat="28.8322709" lon="105.2973272"><ele>502.49</ele><time>2026-02-28T21:57:12.000Z</time></trkpt>
        <trkpt lat="28.8322171" lon="105.2974084"><ele>503.41</ele><time>2026-02-28T21:57:24.000Z</time></trkpt>
        <trkpt lat="28.8322083" lon="105.297456"><ele>504.43</ele><time>2026-02-28T21:57:28.000Z</time></trkpt>
        <trkpt lat="28.8321944" lon="105.2975721"><ele>503.93</ele><time>2026-02-28T21:57:42.000Z</time></trkpt>
        <trkpt lat="28.8321904" lon="105.2977"><ele>504.99</ele><time>2026-02-28T21:57:50.000Z</time></trkpt>
        <trkpt lat="28.8321996" lon="105.297823"><ele>507.82</ele><time>2026-02-28T21:58:00.000Z</time></trkpt>
        <trkpt lat="28.8321653" lon="105.2977775"><ele>510.61</ele><time>2026-02-28T21:58:20.000Z</time></trkpt>
        <trkpt lat="28.8320849" lon="105.2977077"><ele>511.62</ele><time>2026-02-28T21:58:32.000Z</time></trkpt>
        <trkpt lat="28.8319989" lon="105.2976381"><ele>513.02</ele><time>2026-02-28T21:58:40.000Z</time></trkpt>
        <trkpt lat="28.8319043" lon="105.2976303"><ele>514.78</ele><time>2026-02-28T21:58:52.000Z</time></trkpt>
        <trkpt lat="28.8318248" lon="105.2976927"><ele>516.7</ele><time>2026-02-28T21:59:02.000Z</time></trkpt>
        <trkpt lat="28.8317379" lon="105.2977316"><ele>520.28</ele><time>2026-02-28T21:59:28.000Z</time></trkpt>
        <trkpt lat="28.8316436" lon="105.2977577"><ele>523.34</ele><time>2026-02-28T21:59:42.000Z</time></trkpt>
        <trkpt lat="28.8315523" lon="105.2977425"><ele>523.52</ele><time>2026-02-28T21:59:52.000Z</time></trkpt>
        <trkpt lat="28.8315064" lon="105.2977258"><ele>525.13</ele><time>2026-02-28T22:00:00.000Z</time></trkpt>
        <trkpt lat="28.8314522" lon="105.297662"><ele>525.5</ele><time>2026-02-28T22:00:20.000Z</time></trkpt>
        <trkpt lat="28.8314086" lon="105.2975685"><ele>526.93</ele><time>2026-02-28T22:00:38.000Z</time></trkpt>
        <trkpt lat="28.8314499" lon="105.2974746"><ele>525.49</ele><time>2026-02-28T22:00:52.000Z</time></trkpt>
        <trkpt lat="28.8314706" lon="105.2974121"><ele>522.64</ele><time>2026-02-28T22:01:00.000Z</time></trkpt>
        <trkpt lat="28.8315301" lon="105.2973443"><ele>520.47</ele><time>2026-02-28T22:01:34.000Z</time></trkpt>
        <trkpt lat="28.8315468" lon="105.2972422"><ele>515.48</ele><time>2026-02-28T22:01:46.000Z</time></trkpt>
        <trkpt lat="28.8315002" lon="105.2971517"><ele>510.88</ele><time>2026-02-28T22:02:06.000Z</time></trkpt>
        <trkpt lat="28.8314781" lon="105.2970443"><ele>506.15</ele><time>2026-02-28T22:02:18.000Z</time></trkpt>
        <trkpt lat="28.8314124" lon="105.296968"><ele>501.91</ele><time>2026-02-28T22:02:28.000Z</time></trkpt>
        <trkpt lat="28.8313475" lon="105.2969169"><ele>499.26</ele><time>2026-02-28T22:02:38.000Z</time></trkpt>
        <trkpt lat="28.8312625" lon="105.296945"><ele>496.29</ele><time>2026-02-28T22:02:42.000Z</time></trkpt>
        <trkpt lat="28.8312217" lon="105.2968767"><ele>493.84</ele><time>2026-02-28T22:02:46.000Z</time></trkpt>
        <trkpt lat="28.8312081" lon="105.2967702"><ele>493.16</ele><time>2026-02-28T22:03:02.000Z</time></trkpt>
        <trkpt lat="28.8311612" lon="105.2966792"><ele>488.6</ele><time>2026-02-28T22:03:12.000Z</time></trkpt>
        <trkpt lat="28.8310917" lon="105.2966088"><ele>485.84</ele><time>2026-02-28T22:03:30.000Z</time></trkpt>
        <trkpt lat="28.8310721" lon="105.2965069"><ele>481.89</ele><time>2026-02-28T22:03:52.000Z</time></trkpt>
        <trkpt lat="28.831113" lon="105.2964165"><ele>473.77</ele><time>2026-02-28T22:04:02.000Z</time></trkpt>
        <trkpt lat="28.8311701" lon="105.2963068"><ele>467</ele><time>2026-02-28T22:04:16.000Z</time></trkpt>
        <trkpt lat="28.8311252" lon="105.2962515"><ele>460.11</ele><time>2026-02-28T22:04:26.000Z</time></trkpt>
        <trkpt lat="28.831068" lon="105.2961769"><ele>456.38</ele><time>2026-02-28T22:04:34.000Z</time></trkpt>
        <trkpt lat="28.8310232" lon="105.2960742"><ele>453.22</ele><time>2026-02-28T22:04:44.000Z</time></trkpt>
        <trkpt lat="28.8310009" lon="105.2959795"><ele>450.35</ele><time>2026-02-28T22:04:55.000Z</time></trkpt>
        <trkpt lat="28.8310146" lon="105.2958752"><ele>448.03</ele><time>2026-02-28T22:05:09.000Z</time></trkpt>
        <trkpt lat="28.8310867" lon="105.2958175"><ele>445.4</ele><time>2026-02-28T22:05:19.000Z</time></trkpt>
        <trkpt lat="28.8311222" lon="105.2957205"><ele>442.31</ele><time>2026-02-28T22:05:33.000Z</time></trkpt>
        <trkpt lat="28.8310723" lon="105.2956429"><ele>438.4</ele><time>2026-02-28T22:05:43.000Z</time></trkpt>
        <trkpt lat="28.8309868" lon="105.2955848"><ele>434.56</ele><time>2026-02-28T22:05:53.000Z</time></trkpt>
        <trkpt lat="28.8308881" lon="105.2955372"><ele>432.37</ele><time>2026-02-28T22:06:05.000Z</time></trkpt>
        <trkpt lat="28.8308778" lon="105.2954538"><ele>430.15</ele><time>2026-02-28T22:06:25.000Z</time></trkpt>
        <trkpt lat="28.8309504" lon="105.2954143"><ele>426.47</ele><time>2026-02-28T22:06:33.000Z</time></trkpt>
        <trkpt lat="28.8310498" lon="105.2954089"><ele>422.83</ele><time>2026-02-28T22:06:43.000Z</time></trkpt>
        <trkpt lat="28.8311636" lon="105.2953922"><ele>419.2</ele><time>2026-02-28T22:06:53.000Z</time></trkpt>
        <trkpt lat="28.831255" lon="105.295333"><ele>416.16</ele><time>2026-02-28T22:07:03.000Z</time></trkpt>
        <trkpt lat="28.8312899" lon="105.2952273"><ele>412.19</ele><time>2026-02-28T22:07:13.000Z</time></trkpt>
        <trkpt lat="28.8313386" lon="105.2951201"><ele>408.99</ele><time>2026-02-28T22:07:23.000Z</time></trkpt>
        <trkpt lat="28.8314166" lon="105.2950717"><ele>406</ele><time>2026-02-28T22:07:33.000Z</time></trkpt>
        <trkpt lat="28.8315174" lon="105.2950393"><ele>403.65</ele><time>2026-02-28T22:07:43.000Z</time></trkpt>
        <trkpt lat="28.8316116" lon="105.2950126"><ele>399.79</ele><time>2026-02-28T22:07:51.000Z</time></trkpt>
        <trkpt lat="28.8317199" lon="105.2950214"><ele>396.29</ele><time>2026-02-28T22:08:01.000Z</time></trkpt>
        <trkpt lat="28.8318226" lon="105.2950401"><ele>393.44</ele><time>2026-02-28T22:08:11.000Z</time></trkpt>
        <trkpt lat="28.8319164" lon="105.2950434"><ele>390.84</ele><time>2026-02-28T22:08:19.000Z</time></trkpt>
        <trkpt lat="28.8320116" lon="105.2950137"><ele>389.61</ele><time>2026-02-28T22:08:29.000Z</time></trkpt>
        <trkpt lat="28.8321008" lon="105.2949707"><ele>387.32</ele><time>2026-02-28T22:08:37.000Z</time></trkpt>
        <trkpt lat="28.8321909" lon="105.2949167"><ele>384.81</ele><time>2026-02-28T22:08:47.000Z</time></trkpt>
        <trkpt lat="28.8322576" lon="105.2948389"><ele>382.74</ele><time>2026-02-28T22:08:57.000Z</time></trkpt>
        <trkpt lat="28.8323257" lon="105.294757"><ele>381.02</ele><time>2026-02-28T22:09:09.000Z</time></trkpt>
        <trkpt lat="28.8323887" lon="105.2946731"><ele>377.59</ele><time>2026-02-28T22:09:21.000Z</time></trkpt>
        <trkpt lat="28.832465" lon="105.294615"><ele>373.56</ele><time>2026-02-28T22:09:31.000Z</time></trkpt>
        <trkpt lat="28.8325135" lon="105.2945587"><ele>370.52</ele><time>2026-02-28T22:09:41.000Z</time></trkpt>
        <trkpt lat="28.8325875" lon="105.2945101"><ele>368.45</ele><time>2026-02-28T22:10:09.000Z</time></trkpt>
        <trkpt lat="28.8326362" lon="105.2944252"><ele>367</ele><time>2026-02-28T22:10:23.000Z</time></trkpt>
        <trkpt lat="28.832633" lon="105.2943212"><ele>363.94</ele><time>2026-02-28T22:10:33.000Z</time></trkpt>
        <trkpt lat="28.8326158" lon="105.294205"><ele>361.42</ele><time>2026-02-28T22:10:43.000Z</time></trkpt>
        <trkpt lat="28.8326321" lon="105.2940852"><ele>359.82</ele><time>2026-02-28T22:10:53.000Z</time></trkpt>
        <trkpt lat="28.83262" lon="105.2939489"><ele>356.25</ele><time>2026-02-28T22:11:03.000Z</time></trkpt>
        <trkpt lat="28.8325746" lon="105.2938379"><ele>354.78</ele><time>2026-02-28T22:11:13.000Z</time></trkpt>
        <trkpt lat="28.8325248" lon="105.2937431"><ele>353.1</ele><time>2026-02-28T22:11:23.000Z</time></trkpt>
        <trkpt lat="28.8325048" lon="105.2937322"><ele>349.04</ele><time>2026-02-28T22:11:27.000Z</time></trkpt>
        <trkpt lat="28.8324748" lon="105.2936536"><ele>346.3</ele><time>2026-02-28T22:11:45.000Z</time></trkpt>
        <trkpt lat="28.8324593" lon="105.2935481"><ele>345.81</ele><time>2026-02-28T22:11:59.000Z</time></trkpt>
        <trkpt lat="28.8324684" lon="105.2934281"><ele>344.78</ele><time>2026-02-28T22:12:11.000Z</time></trkpt>
        <trkpt lat="28.8325054" lon="105.2933078"><ele>344.38</ele><time>2026-02-28T22:12:23.000Z</time></trkpt>
        <trkpt lat="28.8325711" lon="105.2932033"><ele>343.21</ele><time>2026-02-28T22:12:33.000Z</time></trkpt>
        <trkpt lat="28.8326545" lon="105.2931195"><ele>342.08</ele><time>2026-02-28T22:12:43.000Z</time></trkpt>
        <trkpt lat="28.8327456" lon="105.293077"><ele>340.36</ele><time>2026-02-28T22:12:51.000Z</time></trkpt>
        <trkpt lat="28.8328178" lon="105.2930131"><ele>337.92</ele><time>2026-02-28T22:13:01.000Z</time></trkpt>
        <trkpt lat="28.8328147" lon="105.292917"><ele>334.71</ele><time>2026-02-28T22:13:11.000Z</time></trkpt>
        <trkpt lat="28.8327586" lon="105.2928306"><ele>331.97</ele><time>2026-02-28T22:13:19.000Z</time></trkpt>
        <trkpt lat="28.8326743" lon="105.2927641"><ele>330.06</ele><time>2026-02-28T22:13:27.000Z</time></trkpt>
        <trkpt lat="28.8325794" lon="105.2926996"><ele>328.35</ele><time>2026-02-28T22:13:35.000Z</time></trkpt>
        <trkpt lat="28.8324982" lon="105.2926279"><ele>326.22</ele><time>2026-02-28T22:13:43.000Z</time></trkpt>
        <trkpt lat="28.8324287" lon="105.2925363"><ele>324.39</ele><time>2026-02-28T22:13:51.000Z</time></trkpt>
        <trkpt lat="28.8323653" lon="105.292433"><ele>322.44</ele><time>2026-02-28T22:13:59.000Z</time></trkpt>
        <trkpt lat="28.8323022" lon="105.2923386"><ele>321.66</ele><time>2026-02-28T22:14:07.000Z</time></trkpt>
        <trkpt lat="28.8323072" lon="105.2922406"><ele>320.41</ele><time>2026-02-28T22:14:15.000Z</time></trkpt>
        <trkpt lat="28.8323833" lon="105.2921939"><ele>317.69</ele><time>2026-02-28T22:14:23.000Z</time></trkpt>
        <trkpt lat="28.8324143" lon="105.2921911"><ele>316.98</ele><time>2026-02-28T22:14:25.000Z</time></trkpt>
        <trkpt lat="28.832492" lon="105.2921918"><ele>316.38</ele><time>2026-02-28T22:14:49.000Z</time></trkpt>
        <trkpt lat="28.8325993" lon="105.2922138"><ele>316.08</ele><time>2026-02-28T22:14:59.000Z</time></trkpt>
        <trkpt lat="28.8327011" lon="105.2921835"><ele>316.55</ele><time>2026-02-28T22:15:09.000Z</time></trkpt>
        <trkpt lat="28.8327505" lon="105.292085"><ele>315.32</ele><time>2026-02-28T22:15:19.000Z</time></trkpt>
        <trkpt lat="28.8327695" lon="105.2919532"><ele>312.73</ele><time>2026-02-28T22:15:29.000Z</time></trkpt>
        <trkpt lat="28.8327366" lon="105.291832"><ele>310.74</ele><time>2026-02-28T22:15:39.000Z</time></trkpt>
        <trkpt lat="28.8326588" lon="105.2917426"><ele>309.9</ele><time>2026-02-28T22:15:49.000Z</time></trkpt>
        <trkpt lat="28.8325733" lon="105.2916777"><ele>308.52</ele><time>2026-02-28T22:15:57.000Z</time></trkpt>
        <trkpt lat="28.8324972" lon="105.291599"><ele>306.66</ele><time>2026-02-28T22:16:05.000Z</time></trkpt>
        <trkpt lat="28.8324278" lon="105.2915233"><ele>305.42</ele><time>2026-02-28T22:16:13.000Z</time></trkpt>
        <trkpt lat="28.8323715" lon="105.2914272"><ele>304.28</ele><time>2026-02-28T22:16:21.000Z</time></trkpt>
        <trkpt lat="28.8323378" lon="105.2913176"><ele>302.76</ele><time>2026-02-28T22:16:29.000Z</time></trkpt>
        <trkpt lat="28.8323139" lon="105.2912055"><ele>302.06</ele><time>2026-02-28T22:16:37.000Z</time></trkpt>
        <trkpt lat="28.8323013" lon="105.2910949"><ele>300.74</ele><time>2026-02-28T22:16:45.000Z</time></trkpt>
        <trkpt lat="28.8323192" lon="105.2909856"><ele>299.93</ele><time>2026-02-28T22:16:55.000Z</time></trkpt>
        <trkpt lat="28.8323958" lon="105.2909099"><ele>298.2</ele><time>2026-02-28T22:17:05.000Z</time></trkpt>
        <trkpt lat="28.832499" lon="105.2908552"><ele>295.44</ele><time>2026-02-28T22:17:15.000Z</time></trkpt>
        <trkpt lat="28.8326024" lon="105.2908239"><ele>294.1</ele><time>2026-02-28T22:17:23.000Z</time></trkpt>
        <trkpt lat="28.8327119" lon="105.2908021"><ele>292.9</ele><time>2026-02-28T22:17:33.000Z</time></trkpt>
        <trkpt lat="28.8328212" lon="105.2907588"><ele>293.58</ele><time>2026-02-28T22:17:41.000Z</time></trkpt>
        <trkpt lat="28.8329013" lon="105.2906889"><ele>293.55</ele><time>2026-02-28T22:17:51.000Z</time></trkpt>
        <trkpt lat="28.8329259" lon="105.2905762"><ele>292.36</ele><time>2026-02-28T22:18:02.000Z</time></trkpt>
        <trkpt lat="28.8329143" lon="105.2904483"><ele>291.3</ele><time>2026-02-28T22:18:12.000Z</time></trkpt>
        <trkpt lat="28.8328869" lon="105.2903544"><ele>290.02</ele><time>2026-02-28T22:18:20.000Z</time></trkpt>
        <trkpt lat="28.8328523" lon="105.29025"><ele>289.72</ele><time>2026-02-28T22:18:54.000Z</time></trkpt>
        <trkpt lat="28.8328248" lon="105.2901474"><ele>289.71</ele><time>2026-02-28T22:19:06.000Z</time></trkpt>
        <trkpt lat="28.8328248" lon="105.2901474"><ele>289.71</ele><time>2026-02-28T22:19:18.000Z</time></trkpt>
      </trkseg>
  </trk>
</gpx>